Time,TemperatureF,DewpointF,PressureIn,WindDirection,WindDirectionDegrees,WindSpeedMPH,WindSpeedGustMPH,Humidity,HourlyPrecipIn,Conditions,Clouds,dailyrainin,SoftwareType,DateUTC
2013-01-12 00:01:00,38.6,38.6,29.38,South,180,3.0,4.0,100,0.00,,,0.00,VWS V12.07,2013-01-12 06:01:00,
2013-01-12 00:04:00,38.6,38.6,29.38,South,186,5.0,6.0,100,0.00,,,0.00,VWS V12.07,2013-01-12 06:04:00,
2013-01-12 00:06:00,38.8,38.8,29.38,South,173,4.0,6.0,100,0.00,,,0.00,VWS V12.07,2013-01-12 06:06:00,
2013-01-12 00:09:00,38.8,38.8,29.38,South,174,2.0,5.0,100,0.00,,,0.00,VWS V12.07,2013-01-12 06:09:00,
2013-01-12 00:10:00,38.8,38.8,29.38,South,174,4.0,5.0,100,0.00,,,0.00,VWS V12.07,2013-01-12 06:10:00,
2013-01-12 00:12:00,38.8,38.8,29.38,South,181,3.0,5.0,100,0.00,,,0.00,VWS V12.07,2013-01-12 06:12:00,
2013-01-12 00:14:00,38.6,38.6,29.38,South,186,1.0,5.0,100,0.00,,,0.00,VWS V12.07,2013-01-12 06:14:00,
2013-01-12 00:15:00,38.5,38.5,29.37,South,186,3.0,5.0,100,0.00,,,0.00,VWS V12.07,2013-01-12 06:15:00,
2013-01-12 00:17:00,38.3,38.3,29.37,South,186,3.0,5.0,100,0.00,,,0.00,VWS V12.07,2013-01-12 06:17:00,
2013-01-12 00:19:00,38.2,38.2,29.37,South,186,4.0,4.0,100,0.00,,,0.00,VWS V12.07,2013-01-12 06:19:00,
2013-01-12 00:20:00,38.2,38.2,29.37,South,186,4.0,4.0,100,0.00,,,0.00,VWS V12.07,2013-01-12 06:20:00,
2013-01-12 00:22:00,38.3,38.3,29.37,South,181,2.0,4.0,100,0.00,,,0.00,VWS V12.07,2013-01-12 06:22:00,
2013-01-12 00:24:00,38.5,38.5,29.37,SSW,196,2.0,5.0,100,0.00,,,0.00,VWS V12.07,2013-01-12 06:24:00,
2013-01-12 00:25:00,38.5,38.5,29.37,SSW,197,3.0,5.0,100,0.00,,,0.00,VWS V12.07,2013-01-12 06:25:00,
2013-01-12 00:27:00,38.3,38.3,29.37,SSW,197,3.0,5.0,100,0.00,,,0.00,VWS V12.07,2013-01-12 06:27:00,
2013-01-12 00:29:00,38.5,38.5,29.37,SW,227,7.0,7.0,100,0.00,,,0.00,VWS V12.07,2013-01-12 06:29:00,
2013-01-12 00:30:00,38.6,38.6,29.38,SSW,210,3.0,7.0,100,0.00,,,0.00,VWS V12.07,2013-01-12 06:30:00,
2013-01-12 00:32:00,38.6,38.6,29.38,South,187,3.0,7.0,100,0.00,,,0.00,VWS V12.07,2013-01-12 06:32:00,
2013-01-12 00:34:00,38.9,38.9,29.38,South,177,3.0,7.0,100,0.00,,OVC003,0.00,VWS V12.07,2013-01-12 06:34:00,
2013-01-12 00:35:00,38.9,38.9,29.38,South,177,4.0,7.0,100,0.00,,OVC003,0.00,VWS V12.07,2013-01-12 06:35:00,
2013-01-12 00:37:00,39.1,39.1,29.38,SSW,193,2.0,7.0,100,0.00,,OVC003,0.00,VWS V12.07,2013-01-12 06:37:00,
2013-01-12 00:39:00,39.1,39.1,29.38,SSW,193,4.0,4.0,100,0.00,,OVC003,0.00,VWS V12.07,2013-01-12 06:39:00,
2013-01-12 00:40:00,39.1,39.1,29.38,SSW,193,3.0,4.0,100,0.00,,OVC003,0.00,VWS V12.07,2013-01-12 06:40:00,
2013-01-12 00:41:00,39.1,39.1,29.38,SSW,193,2.0,5.0,100,0.00,,OVC003,0.00,VWS V12.07,2013-01-12 06:41:00,
2013-01-12 00:42:00,38.9,38.9,29.38,SSW,198,3.0,5.0,100,0.00,,OVC003,0.00,VWS V12.07,2013-01-12 06:42:00,
2013-01-12 00:44:00,38.9,38.9,29.38,SSW,198,3.0,5.0,100,0.00,,OVC003,0.00,VWS V12.07,2013-01-12 06:44:00,
2013-01-12 00:45:00,38.9,38.9,29.38,SSW,198,3.0,5.0,100,0.00,,OVC003,0.00,VWS V12.07,2013-01-12 06:45:00,
2013-01-12 00:46:00,38.9,38.9,29.37,SSW,198,3.0,5.0,100,0.00,,OVC003,0.00,VWS V12.07,2013-01-12 06:46:00,
2013-01-12 00:47:00,38.9,38.9,29.37,SSW,198,3.0,5.0,100,0.00,,OVC003,0.00,VWS V12.07,2013-01-12 06:47:00,
2013-01-12 00:50:00,39.1,39.1,29.37,SSW,193,3.0,6.0,100,0.00,,,0.00,VWS V12.07,2013-01-12 06:50:00,
2013-01-12 00:53:00,39.1,39.1,29.37,SSW,195,0.0,6.0,100,0.00,,,0.00,VWS V12.07,2013-01-12 06:53:00,
2013-01-12 00:55:00,39.3,39.3,29.37,SSW,200,3.0,6.0,100,0.00,,,0.00,VWS V12.07,2013-01-12 06:55:00,
2013-01-12 00:56:00,39.3,39.3,29.37,SSW,200,4.0,6.0,100,0.00,,,0.00,VWS V12.07,2013-01-12 06:56:00,
2013-01-12 00:59:00,39.2,39.2,29.37,SSW,195,3.0,5.0,100,0.00,,,0.00,VWS V12.07,2013-01-12 06:59:00,
2013-01-12 01:00:00,39.2,39.2,29.37,SSW,192,2.0,5.0,100,0.00,,,0.00,VWS V12.07,2013-01-12 07:00:00,
2013-01-12 01:01:00,39.2,39.2,29.37,South,186,3.0,5.0,100,0.00,,,0.00,VWS V12.07,2013-01-12 07:01:00,
2013-01-12 01:04:00,39.3,39.3,29.37,SSW,199,4.0,5.0,100,0.00,,,0.00,VWS V12.07,2013-01-12 07:04:00,
2013-01-12 01:05:00,39.5,39.5,29.37,SSW,199,3.0,6.0,100,0.00,,,0.00,VWS V12.07,2013-01-12 07:05:00,
2013-01-12 01:06:00,39.5,39.5,29.37,SSW,192,3.0,6.0,100,0.00,,,0.00,VWS V12.07,2013-01-12 07:06:00,
2013-01-12 01:09:00,39.6,39.6,29.37,SSW,200,1.0,5.0,100,0.00,,,0.00,VWS V12.07,2013-01-12 07:09:00,
2013-01-12 01:11:00,39.8,39.8,29.37,SSW,193,4.0,6.0,100,0.00,,,0.00,VWS V12.07,2013-01-12 07:11:00,
2013-01-12 01:12:00,39.8,39.8,29.37,SSE,162,3.0,6.0,100,0.00,,,0.00,VWS V12.07,2013-01-12 07:12:00,
2013-01-12 01:14:00,39.8,39.8,29.37,SSE,165,3.0,6.0,100,0.00,,,0.00,VWS V12.07,2013-01-12 07:14:00,
2013-01-12 01:16:00,39.8,39.8,29.36,SSW,195,4.0,6.0,100,0.00,,,0.00,VWS V12.07,2013-01-12 07:16:00,
2013-01-12 01:17:00,39.8,39.8,29.36,SW,214,3.0,6.0,100,0.00,,,0.00,VWS V12.07,2013-01-12 07:17:00,
2013-01-12 01:19:00,39.8,39.8,29.36,South,176,4.0,5.0,100,0.00,,,0.00,VWS V12.07,2013-01-12 07:19:00,
2013-01-12 01:21:00,39.9,39.9,29.36,SSW,195,4.0,5.0,100,0.00,,,0.00,VWS V12.07,2013-01-12 07:21:00,
2013-01-12 01:23:00,40.1,40.1,29.36,SSW,205,5.0,5.0,100,0.00,,,0.00,VWS V12.07,2013-01-12 07:23:00,
2013-01-12 01:25:00,40.1,40.1,29.36,SSW,197,4.0,6.0,100,0.00,,,0.00,VWS V12.07,2013-01-12 07:25:00,
2013-01-12 01:26:00,40.1,40.1,29.36,SSW,200,3.0,6.0,100,0.00,,,0.00,VWS V12.07,2013-01-12 07:26:00,
2013-01-12 01:27:00,40.1,40.1,29.36,SSW,200,4.0,6.0,100,0.00,,,0.00,VWS V12.07,2013-01-12 07:27:00,
2013-01-12 01:28:00,40.1,40.1,29.36,SSW,208,5.0,6.0,100,0.00,,,0.00,VWS V12.07,2013-01-12 07:28:00,
2013-01-12 01:30:00,40.3,40.3,29.37,SSW,208,3.0,6.0,100,0.00,,,0.00,VWS V12.07,2013-01-12 07:30:00,
2013-01-12 01:31:00,40.3,40.3,29.37,SSW,208,4.0,6.0,100,0.00,,,0.00,VWS V12.07,2013-01-12 07:31:00,
2013-01-12 01:32:00,40.2,40.2,29.37,SSW,208,2.0,6.0,100,0.00,,,0.00,VWS V12.07,2013-01-12 07:32:00,
2013-01-12 01:33:00,40.2,40.2,29.37,SSW,209,3.0,6.0,100,0.00,,,0.00,VWS V12.07,2013-01-12 07:33:00,
2013-01-12 01:35:00,40.1,40.1,29.37,SSW,210,4.0,6.0,100,0.00,,,0.00,VWS V12.07,2013-01-12 07:35:00,
2013-01-12 01:36:00,39.9,39.9,29.37,SSW,210,3.0,6.0,100,0.00,,,0.00,VWS V12.07,2013-01-12 07:36:00,
2013-01-12 01:37:00,39.9,39.9,29.37,SSW,210,2.0,6.0,100,0.00,,,0.00,VWS V12.07,2013-01-12 07:37:00,
2013-01-12 01:38:00,39.8,39.8,29.37,SSW,203,3.0,5.0,100,0.00,,,0.00,VWS V12.07,2013-01-12 07:38:00,
2013-01-12 01:40:00,40.1,40.1,29.37,SSW,209,3.0,6.0,100,0.00,,,0.00,VWS V12.07,2013-01-12 07:40:00,
2013-01-12 01:42:00,40.2,40.2,29.37,SSW,209,3.0,6.0,100,0.00,,,0.00,VWS V12.07,2013-01-12 07:42:00,
2013-01-12 01:43:00,40.1,40.1,29.37,SSW,201,3.0,6.0,100,0.00,,,0.00,VWS V12.07,2013-01-12 07:43:00,
2013-01-12 01:44:00,40.1,40.1,29.37,SSW,201,2.0,6.0,100,0.00,,,0.00,VWS V12.07,2013-01-12 07:44:00,
2013-01-12 01:46:00,39.9,39.9,29.36,SSW,206,3.0,6.0,100,0.00,,,0.00,VWS V12.07,2013-01-12 07:46:00,
2013-01-12 01:47:00,40.1,40.1,29.36,SSW,202,4.0,6.0,100,0.00,,,0.00,VWS V12.07,2013-01-12 07:47:00,
2013-01-12 01:48:00,40.1,40.1,29.36,SSW,204,4.0,5.0,100,0.00,,,0.00,VWS V12.07,2013-01-12 07:48:00,
2013-01-12 01:49:00,40.2,40.2,29.36,SSW,204,3.0,5.0,100,0.00,,,0.00,VWS V12.07,2013-01-12 07:49:00,
2013-01-12 01:51:00,40.2,40.2,29.36,SSW,207,3.0,5.0,100,0.00,,,0.00,VWS V12.07,2013-01-12 07:51:00,
2013-01-12 01:52:00,40.2,40.2,29.36,SSW,207,3.0,5.0,100,0.00,,,0.00,VWS V12.07,2013-01-12 07:52:00,
2013-01-12 01:54:00,40.2,40.2,29.36,SSW,207,1.0,0.0,100,0.00,,,0.00,VWS V12.07,2013-01-12 07:54:00,
2013-01-12 01:56:00,40.2,40.2,29.36,SSW,193,2.0,5.0,100,0.00,,,0.00,VWS V12.07,2013-01-12 07:56:00,
2013-01-12 01:57:00,40.2,40.2,29.36,SSW,193,4.0,5.0,100,0.00,,,0.00,VWS V12.07,2013-01-12 07:57:00,
2013-01-12 01:59:00,40.1,40.1,29.36,SSE,151,3.0,9.0,100,0.00,,,0.00,VWS V12.07,2013-01-12 07:59:00,
2013-01-12 02:00:00,40.1,40.1,29.36,South,190,3.0,9.0,100,0.00,,,0.00,VWS V12.07,2013-01-12 08:00:00,
2013-01-12 02:02:00,40.2,40.2,29.36,SSW,199,5.0,9.0,100,0.00,,,0.00,VWS V12.07,2013-01-12 08:02:00,
2013-01-12 02:04:00,40.6,40.6,29.36,South,188,4.0,9.0,100,0.00,,,0.00,VWS V12.07,2013-01-12 08:04:00,
2013-01-12 02:05:00,40.5,40.5,29.36,SSW,196,4.0,9.0,100,0.00,,,0.00,VWS V12.07,2013-01-12 08:05:00,
2013-01-12 02:07:00,40.3,40.3,29.36,SSW,196,4.0,9.0,100,0.00,,,0.00,VWS V12.07,2013-01-12 08:07:00,
2013-01-12 02:08:00,40.5,40.5,29.36,SSW,199,3.0,9.0,100,0.00,,,0.00,VWS V12.07,2013-01-12 08:08:00,
2013-01-12 02:09:00,40.5,40.5,29.36,SSW,202,4.0,6.0,100,0.00,,,0.00,VWS V12.07,2013-01-12 08:09:00,
2013-01-12 02:10:00,40.5,40.5,29.36,SSW,200,4.0,6.0,100,0.00,,,0.00,VWS V12.07,2013-01-12 08:10:00,
2013-01-12 02:12:00,40.3,40.3,29.36,SSW,203,4.0,6.0,100,0.00,,,0.00,VWS V12.07,2013-01-12 08:12:00,
2013-01-12 02:13:00,40.3,40.3,29.36,SSW,211,3.0,6.0,100,0.00,,,0.00,VWS V12.07,2013-01-12 08:13:00,
2013-01-12 02:15:00,40.5,40.5,29.36,SSW,203,4.0,6.0,100,0.00,,,0.00,VWS V12.07,2013-01-12 08:15:00,
2013-01-12 02:17:00,40.5,40.5,29.36,SSW,203,2.0,6.0,100,0.00,,,0.00,VWS V12.07,2013-01-12 08:17:00,
2013-01-12 02:18:00,40.3,40.3,29.36,SSW,200,3.0,0.0,100,0.00,,,0.00,VWS V12.07,2013-01-12 08:18:00,
2013-01-12 02:20:00,40.6,40.6,29.36,South,182,3.0,7.0,100,0.00,,,0.00,VWS V12.07,2013-01-12 08:20:00,
2013-01-12 02:21:00,40.5,40.5,29.36,South,183,2.0,7.0,100,0.00,,,0.00,VWS V12.07,2013-01-12 08:21:00,
2013-01-12 02:23:00,40.2,40.2,29.36,SSW,205,4.0,7.0,100,0.00,,,0.00,VWS V12.07,2013-01-12 08:23:00,
2013-01-12 02:25:00,40.5,40.5,29.36,South,191,4.0,7.0,100,0.00,,,0.00,VWS V12.07,2013-01-12 08:25:00,
2013-01-12 02:26:00,40.5,40.5,29.36,South,191,3.0,7.0,100,0.00,,,0.00,VWS V12.07,2013-01-12 08:26:00,
2013-01-12 02:28:00,40.5,40.5,29.36,SSW,200,4.0,5.0,100,0.00,,,0.00,VWS V12.07,2013-01-12 08:28:00,
2013-01-12 02:30:00,40.3,40.3,29.35,SSW,205,3.0,9.0,100,0.00,,,0.00,VWS V12.07,2013-01-12 08:30:00,
2013-01-12 02:31:00,40.3,40.3,29.35,SSW,205,4.0,9.0,100,0.00,,,0.00,VWS V12.07,2013-01-12 08:31:00,
2013-01-12 02:33:00,40.5,40.5,29.35,SSW,195,4.0,9.0,100,0.00,,,0.00,VWS V12.07,2013-01-12 08:33:00,
2013-01-12 02:34:00,40.5,40.5,29.35,SSW,195,3.0,9.0,100,0.00,,,0.00,VWS V12.07,2013-01-12 08:34:00,
2013-01-12 02:35:00,40.3,40.3,29.35,SSW,199,4.0,9.0,100,0.00,,,0.00,VWS V12.07,2013-01-12 08:35:00,
2013-01-12 02:36:00,40.3,40.3,29.35,SSW,199,3.0,9.0,100,0.00,,,0.00,VWS V12.07,2013-01-12 08:36:00,
2013-01-12 02:39:00,40.2,40.2,29.35,SSW,200,2.0,5.0,100,0.00,,,0.00,VWS V12.07,2013-01-12 08:39:00,
2013-01-12 02:41:00,39.9,39.9,29.35,SSW,199,3.0,5.0,100,0.00,,,0.00,VWS V12.07,2013-01-12 08:41:00,
2013-01-12 02:44:00,40.1,40.1,29.35,SSW,201,3.0,5.0,100,0.00,,,0.00,VWS V12.07,2013-01-12 08:44:00,
2013-01-12 02:46:00,40.1,40.1,29.35,South,184,4.0,5.0,100,0.00,,,0.00,VWS V12.07,2013-01-12 08:46:00,
2013-01-12 02:47:00,40.1,40.1,29.35,South,184,4.0,5.0,100,0.00,,,0.00,VWS V12.07,2013-01-12 08:47:00,
2013-01-12 02:49:00,39.8,39.8,29.35,SSW,194,3.0,5.0,100,0.00,,,0.00,VWS V12.07,2013-01-12 08:49:00,
2013-01-12 02:51:00,39.8,39.8,29.35,SSW,194,4.0,5.0,100,0.00,,,0.00,VWS V12.07,2013-01-12 08:51:00,
2013-01-12 02:52:00,40.1,40.1,29.35,SSW,200,3.0,5.0,100,0.00,,,0.00,VWS V12.07,2013-01-12 08:52:00,
2013-01-12 02:54:00,39.9,39.9,29.35,SSW,200,4.0,5.0,100,0.00,,,0.00,VWS V12.07,2013-01-12 08:54:00,
2013-01-12 02:56:00,39.9,39.9,29.35,SW,221,3.0,5.0,100,0.00,,,0.00,VWS V12.07,2013-01-12 08:56:00,
2013-01-12 02:58:00,39.9,39.9,29.35,SSW,205,5.0,5.0,100,0.00,,,0.00,VWS V12.07,2013-01-12 08:58:00,
2013-01-12 02:59:00,39.9,39.9,29.35,SSW,197,3.0,5.0,100,0.00,,,0.00,VWS V12.07,2013-01-12 08:59:00,
2013-01-12 03:00:00,39.9,39.9,29.35,SSW,197,3.0,5.0,100,0.00,,,0.00,VWS V12.07,2013-01-12 09:00:00,
2013-01-12 03:01:00,40.1,40.1,29.35,SSW,200,2.0,7.0,100,0.00,,,0.00,VWS V12.07,2013-01-12 09:01:00,
2013-01-12 03:03:00,40.1,40.1,29.35,South,189,3.0,7.0,100,0.00,,,0.00,VWS V12.07,2013-01-12 09:03:00,
2013-01-12 03:04:00,39.9,39.9,29.35,South,189,3.0,7.0,100,0.00,,,0.00,VWS V12.07,2013-01-12 09:04:00,
2013-01-12 03:06:00,39.9,39.9,29.35,SSW,193,3.0,7.0,100,0.00,,,0.00,VWS V12.07,2013-01-12 09:06:00,
2013-01-12 03:07:00,39.9,39.9,29.35,SSW,194,3.0,7.0,100,0.00,,,0.00,VWS V12.07,2013-01-12 09:07:00,
2013-01-12 03:08:00,40.1,40.1,29.35,SW,220,5.0,0.0,100,0.00,,,0.00,VWS V12.07,2013-01-12 09:08:00,
2013-01-12 03:10:00,40.2,40.2,29.35,SSW,209,3.0,7.0,100,0.00,,,0.00,VWS V12.07,2013-01-12 09:10:00,
2013-01-12 03:11:00,40.3,40.3,29.35,SSW,209,5.0,7.0,100,0.00,,,0.00,VWS V12.07,2013-01-12 09:11:00,
2013-01-12 03:12:00,40.5,40.5,29.35,SSW,210,4.0,7.0,100,0.00,,,0.00,VWS V12.07,2013-01-12 09:12:00,
2013-01-12 03:13:00,40.5,40.5,29.35,SSW,206,3.0,7.0,100,0.00,,,0.00,VWS V12.07,2013-01-12 09:13:00,
2013-01-12 03:15:00,40.5,40.5,29.35,SSW,206,3.0,7.0,100,0.00,,,0.00,VWS V12.07,2013-01-12 09:15:00,
2013-01-12 03:16:00,40.5,40.5,29.34,SSW,206,4.0,7.0,100,0.00,,,0.00,VWS V12.07,2013-01-12 09:16:00,
2013-01-12 03:17:00,40.5,40.5,29.34,SSW,205,5.0,7.0,100,0.00,,,0.00,VWS V12.07,2013-01-12 09:17:00,
2013-01-12 03:18:00,40.5,40.5,29.34,SSW,205,3.0,5.0,100,0.00,,,0.00,VWS V12.07,2013-01-12 09:18:00,
2013-01-12 03:20:00,40.3,40.3,29.34,SSW,195,2.0,5.0,100,0.00,,,0.00,VWS V12.07,2013-01-12 09:20:00,
2013-01-12 03:22:00,40.2,40.2,29.34,South,184,2.0,5.0,100,0.00,,,0.00,VWS V12.07,2013-01-12 09:22:00,
2013-01-12 03:23:00,40.1,40.1,29.34,SSW,194,3.0,5.0,100,0.00,,,0.00,VWS V12.07,2013-01-12 09:23:00,
2013-01-12 03:25:00,40.2,40.2,29.34,SSW,207,3.0,6.0,100,0.00,,,0.00,VWS V12.07,2013-01-12 09:25:00,
2013-01-12 03:27:00,40.3,40.3,29.34,South,170,1.0,6.0,100,0.00,,,0.00,VWS V12.07,2013-01-12 09:27:00,
2013-01-12 03:28:00,40.3,40.3,29.34,South,181,3.0,6.0,100,0.00,,,0.00,VWS V12.07,2013-01-12 09:28:00,
2013-01-12 03:30:00,40.3,40.3,29.33,SSW,200,4.0,6.0,100,0.00,,,0.00,VWS V12.07,2013-01-12 09:30:00,
2013-01-12 03:32:00,40.6,40.6,29.33,SSW,205,4.0,6.0,100,0.00,,,0.00,VWS V12.07,2013-01-12 09:32:00,
2013-01-12 03:33:00,40.6,40.6,29.33,SSW,205,3.0,6.0,100,0.00,,,0.00,VWS V12.07,2013-01-12 09:33:00,
2013-01-12 03:34:00,40.5,40.5,29.33,South,175,3.0,6.0,100,0.00,,,0.00,VWS V12.07,2013-01-12 09:34:00,
2013-01-12 03:37:00,40.3,40.3,29.33,SSW,212,5.0,6.0,100,0.00,,OVC007,0.00,VWS V12.07,2013-01-12 09:37:00,
2013-01-12 03:38:00,40.3,40.3,29.33,SSW,213,6.0,10.0,100,0.00,,OVC007,0.00,VWS V12.07,2013-01-12 09:38:00,
2013-01-12 03:39:00,40.5,40.5,29.33,South,190,5.0,10.0,100,0.00,,OVC007,0.00,VWS V12.07,2013-01-12 09:39:00,
2013-01-12 03:43:00,40.2,40.2,29.33,South,191,7.0,11.0,100,0.00,,OVC007,0.00,VWS V12.07,2013-01-12 09:43:00,
2013-01-12 03:44:00,40.2,40.2,29.33,South,190,5.0,11.0,100,0.00,,OVC007,0.00,VWS V12.07,2013-01-12 09:44:00,
2013-01-12 03:48:00,40.5,40.5,29.32,South,190,3.0,7.0,100,0.00,,OVC007,0.00,VWS V12.07,2013-01-12 09:48:00,
2013-01-12 03:49:00,40.3,40.3,29.32,South,190,2.0,7.0,100,0.00,,OVC007,0.00,VWS V12.07,2013-01-12 09:49:00,
2013-01-12 03:53:00,40.2,40.2,29.32,SSW,203,5.0,7.0,100,0.00,,OVC007,0.00,VWS V12.07,2013-01-12 09:53:00,
2013-01-12 03:54:00,40.2,40.2,29.32,SSW,201,4.0,7.0,100,0.00,,OVC007,0.00,VWS V12.07,2013-01-12 09:54:00,
2013-01-12 03:55:00,40.3,40.3,29.32,SSW,203,5.0,7.0,100,0.00,,OVC007,0.00,VWS V12.07,2013-01-12 09:55:00,
2013-01-12 03:58:00,40.5,40.5,29.32,SSW,201,4.0,6.0,100,0.00,,OVC007,0.00,VWS V12.07,2013-01-12 09:58:00,
2013-01-12 03:59:00,40.6,40.6,29.32,SSW,192,5.0,6.0,100,0.00,,OVC007,0.00,VWS V12.07,2013-01-12 09:59:00,
2013-01-12 04:00:00,40.5,40.5,29.32,SSW,205,6.0,6.0,100,0.00,,OVC007,0.00,VWS V12.07,2013-01-12 10:00:00,
2013-01-12 04:03:00,40.6,40.6,29.32,SSW,197,5.0,7.0,100,0.00,,OVC007,0.00,VWS V12.07,2013-01-12 10:03:00,
2013-01-12 04:04:00,40.6,40.6,29.32,SSW,203,5.0,7.0,100,0.00,,OVC007,0.00,VWS V12.07,2013-01-12 10:04:00,
2013-01-12 04:05:00,40.6,40.6,29.32,SSW,203,5.0,7.0,100,0.00,,OVC007,0.00,VWS V12.07,2013-01-12 10:05:00,
2013-01-12 04:08:00,40.6,40.6,29.32,SSW,195,2.0,7.0,100,0.00,,OVC007,0.00,VWS V12.07,2013-01-12 10:08:00,
2013-01-12 04:09:00,40.6,40.6,29.32,SSW,211,7.0,7.0,100,0.00,,OVC007,0.00,VWS V12.07,2013-01-12 10:09:00,
2013-01-12 04:10:00,40.6,40.6,29.32,SSW,212,6.0,7.0,100,0.00,,OVC007,0.00,VWS V12.07,2013-01-12 10:10:00,
2013-01-12 04:13:00,40.6,40.6,29.32,SSW,201,4.0,7.0,100,0.00,,OVC007,0.00,VWS V12.07,2013-01-12 10:13:00,
2013-01-12 04:14:00,40.6,40.6,29.32,SSW,195,5.0,7.0,100,0.00,,OVC007,0.00,VWS V12.07,2013-01-12 10:14:00,
2013-01-12 04:15:00,40.5,40.5,29.32,SSW,202,4.0,7.0,100,0.00,,OVC007,0.00,VWS V12.07,2013-01-12 10:15:00,
2013-01-12 04:18:00,40.8,40.8,29.32,SW,215,6.0,12.0,100,0.00,,OVC007,0.00,VWS V12.07,2013-01-12 10:18:00,
2013-01-12 04:20:00,40.8,40.8,29.32,SSW,212,6.0,17.0,100,0.00,,OVC007,0.00,VWS V12.07,2013-01-12 10:20:00,
2013-01-12 04:21:00,40.9,40.9,29.32,SSW,198,2.0,17.0,100,0.00,,OVC007,0.00,VWS V12.07,2013-01-12 10:21:00,
2013-01-12 04:23:00,40.9,40.9,29.32,SW,216,4.0,17.0,100,0.00,,OVC007,0.00,VWS V12.07,2013-01-12 10:23:00,
2013-01-12 04:25:00,40.9,40.9,29.32,SSW,200,5.0,17.0,100,0.00,,OVC007,0.00,VWS V12.07,2013-01-12 10:25:00,
2013-01-12 04:26:00,40.8,40.8,29.32,SW,219,5.0,17.0,100,0.00,,OVC007,0.00,VWS V12.07,2013-01-12 10:26:00,
2013-01-12 04:28:00,40.8,40.8,29.32,SSW,196,4.0,9.0,100,0.00,,OVC007,0.00,VWS V12.07,2013-01-12 10:28:00,
2013-01-12 04:30:00,40.6,40.6,29.32,SSW,194,5.0,9.0,100,0.00,,OVC007,0.00,VWS V12.07,2013-01-12 10:30:00,
2013-01-12 04:31:00,40.5,40.5,29.32,SSW,205,4.0,9.0,100,0.00,,OVC007,0.00,VWS V12.07,2013-01-12 10:31:00,
2013-01-12 04:33:00,40.5,40.5,29.32,SSW,205,4.0,9.0,100,0.00,,OVC007,0.00,VWS V12.07,2013-01-12 10:33:00,
2013-01-12 04:35:00,40.6,40.6,29.32,South,187,3.0,9.0,100,0.00,,OVC009,0.00,VWS V12.07,2013-01-12 10:35:00,
2013-01-12 04:37:00,40.5,40.5,29.32,SSW,199,6.0,9.0,100,0.00,,OVC009,0.00,VWS V12.07,2013-01-12 10:37:00,
2013-01-12 04:39:00,40.6,40.6,29.32,SSW,195,5.0,7.0,100,0.00,,OVC009,0.00,VWS V12.07,2013-01-12 10:39:00,
2013-01-12 04:40:00,40.5,40.5,29.32,SSW,206,5.0,7.0,100,0.00,,OVC009,0.00,VWS V12.07,2013-01-12 10:40:00,
2013-01-12 04:43:00,40.2,40.2,29.32,SSW,193,4.0,7.0,100,0.00,,OVC009,0.00,VWS V12.07,2013-01-12 10:43:00,
2013-01-12 04:44:00,40.2,40.2,29.32,SSE,163,3.0,7.0,100,0.00,,OVC009,0.00,VWS V12.07,2013-01-12 10:44:00,
2013-01-12 04:45:00,40.2,40.2,29.32,South,191,6.0,7.0,100,0.00,,OVC009,0.00,VWS V12.07,2013-01-12 10:45:00,
2013-01-12 04:46:00,40.2,40.2,29.32,SW,215,6.0,7.0,100,0.00,,OVC009,0.00,VWS V12.07,2013-01-12 10:46:00,
2013-01-12 04:48:00,40.3,40.3,29.32,South,188,5.0,10.0,100,0.00,,OVC016,0.00,VWS V12.07,2013-01-12 10:48:00,
2013-01-12 04:49:00,40.3,40.3,29.32,SSW,201,4.0,10.0,100,0.00,,OVC016,0.00,VWS V12.07,2013-01-12 10:49:00,
2013-01-12 04:51:00,40.3,40.3,29.32,SSW,207,4.0,10.0,100,0.00,,OVC016,0.00,VWS V12.07,2013-01-12 10:51:00,
2013-01-12 04:53:00,40.3,40.3,29.32,SSW,204,7.0,10.0,100,0.00,,OVC016,0.00,VWS V12.07,2013-01-12 10:53:00,
2013-01-12 04:55:00,40.3,40.3,29.32,SSW,200,3.0,10.0,100,0.00,,OVC016,0.00,VWS V12.07,2013-01-12 10:55:00,
2013-01-12 04:56:00,40.3,40.3,29.32,SSE,155,4.0,11.0,100,0.00,,OVC016,0.00,VWS V12.07,2013-01-12 10:56:00,
2013-01-12 04:58:00,40.5,40.5,29.32,SSW,204,6.0,9.0,100,0.00,,OVC016,0.00,VWS V12.07,2013-01-12 10:58:00,
2013-01-12 05:00:00,40.3,40.3,29.32,SW,217,3.0,9.0,100,0.00,,OVC016,0.00,VWS V12.07,2013-01-12 11:00:00,
2013-01-12 05:01:00,40.3,40.3,29.32,SSW,198,5.0,9.0,100,0.00,,OVC016,0.00,VWS V12.07,2013-01-12 11:01:00,
2013-01-12 05:03:00,40.2,40.2,29.32,SSW,195,5.0,9.0,100,0.00,,OVC016,0.00,VWS V12.07,2013-01-12 11:03:00,
2013-01-12 05:05:00,40.2,40.2,29.32,SSW,200,5.0,9.0,100,0.00,,OVC016,0.00,VWS V12.07,2013-01-12 11:05:00,
2013-01-12 05:06:00,40.3,40.3,29.32,South,191,3.0,9.0,100,0.00,,OVC016,0.00,VWS V12.07,2013-01-12 11:06:00,
2013-01-12 05:08:00,40.3,40.3,29.32,SSW,202,4.0,10.0,100,0.00,,OVC016,0.00,VWS V12.07,2013-01-12 11:08:00,
2013-01-12 05:10:00,40.2,40.2,29.32,SSW,206,5.0,10.0,100,0.00,,OVC016,0.00,VWS V12.07,2013-01-12 11:10:00,
2013-01-12 05:11:00,40.2,40.2,29.32,SSW,207,4.0,10.0,100,0.00,,OVC016,0.00,VWS V12.07,2013-01-12 11:11:00,
2013-01-12 05:12:00,40.2,40.2,29.32,SSW,207,4.0,10.0,100,0.00,,OVC016,0.00,VWS V12.07,2013-01-12 11:12:00,
2013-01-12 05:13:00,40.2,40.2,29.32,SSW,209,5.0,10.0,100,0.00,,OVC016,0.00,VWS V12.07,2013-01-12 11:13:00,
2013-01-12 05:15:00,40.2,40.2,29.32,South,176,4.0,10.0,100,0.00,,OVC016,0.00,VWS V12.07,2013-01-12 11:15:00,
2013-01-12 05:16:00,40.2,40.2,29.32,SSW,197,3.0,10.0,100,0.00,,OVC016,0.00,VWS V12.07,2013-01-12 11:16:00,
2013-01-12 05:17:00,40.2,40.2,29.32,SSW,205,6.0,10.0,100,0.00,,OVC016,0.00,VWS V12.07,2013-01-12 11:17:00,
2013-01-12 05:18:00,40.3,40.3,29.32,SSW,195,3.0,10.0,100,0.00,,OVC016,0.00,VWS V12.07,2013-01-12 11:18:00,
2013-01-12 05:21:00,40.2,40.2,29.32,SSW,200,5.0,10.0,100,0.00,,OVC016,0.00,VWS V12.07,2013-01-12 11:21:00,
2013-01-12 05:22:00,40.2,40.2,29.32,South,190,4.0,10.0,100,0.00,,OVC016,0.00,VWS V12.07,2013-01-12 11:22:00,
2013-01-12 05:23:00,40.2,40.2,29.32,SW,219,5.0,10.0,100,0.00,,OVC016,0.00,VWS V12.07,2013-01-12 11:23:00,
2013-01-12 05:26:00,40.1,40.1,29.32,SSW,200,4.0,10.0,100,0.00,,OVC016,0.00,VWS V12.07,2013-01-12 11:26:00,
2013-01-12 05:27:00,40.1,40.1,29.32,WSW,240,11.0,11.0,100,0.00,,OVC016,0.00,VWS V12.07,2013-01-12 11:27:00,
2013-01-12 05:28:00,40.1,40.1,29.32,SW,216,4.0,10.0,100,0.00,,OVC016,0.00,VWS V12.07,2013-01-12 11:28:00,
2013-01-12 05:32:00,40.1,40.1,29.33,SW,217,6.0,12.0,100,0.01,,OVC016,0.01,VWS V12.07,2013-01-12 11:32:00,
2013-01-12 05:33:00,40.1,40.1,29.33,SW,217,4.0,12.0,100,0.01,,OVC016,0.01,VWS V12.07,2013-01-12 11:33:00,
2013-01-12 05:38:00,39.9,39.9,29.33,WSW,237,3.0,12.0,100,0.02,,OVC021,0.02,VWS V12.07,2013-01-12 11:38:00,
2013-01-12 05:39:00,39.9,39.9,29.33,SW,229,3.0,8.0,100,0.02,,OVC021,0.02,VWS V12.07,2013-01-12 11:39:00,
2013-01-12 05:43:00,39.5,39.5,29.33,SSW,207,15.0,15.0,100,0.02,,OVC021,0.02,VWS V12.07,2013-01-12 11:43:00,
2013-01-12 05:44:00,39.5,39.5,29.33,SW,236,12.0,15.0,100,0.02,,OVC021,0.02,VWS V12.07,2013-01-12 11:44:00,
2013-01-12 05:48:00,39.2,39.2,29.35,SW,216,3.0,7.0,100,0.02,,OVC050,0.02,VWS V12.07,2013-01-12 11:48:00,
2013-01-12 05:49:00,39.2,39.2,29.35,SW,220,5.0,7.0,100,0.02,,OVC050,0.02,VWS V12.07,2013-01-12 11:49:00,
2013-01-12 05:53:00,39.1,39.1,29.35,SSW,201,5.0,11.0,100,0.02,,OVC050,0.02,VWS V12.07,2013-01-12 11:53:00,
2013-01-12 05:54:00,39.1,39.1,29.35,SSW,201,5.0,11.0,100,0.02,,OVC050,0.02,VWS V12.07,2013-01-12 11:54:00,
2013-01-12 05:58:00,38.8,38.8,29.35,SSW,210,5.0,16.0,100,0.02,,OVC050,0.02,VWS V12.07,2013-01-12 11:58:00,
2013-01-12 05:59:00,38.6,38.6,29.35,SW,219,9.0,16.0,100,0.02,,OVC050,0.02,VWS V12.07,2013-01-12 11:59:00,
2013-01-12 06:04:00,38.5,38.5,29.37,SW,217,5.0,16.0,100,0.02,,OVC050,0.02,VWS V12.07,2013-01-12 12:04:00,
2013-01-12 06:05:00,38.3,38.3,29.37,SW,224,7.0,17.0,100,0.02,,OVC050,0.02,VWS V12.07,2013-01-12 12:05:00,
2013-01-12 06:09:00,38.2,38.2,29.37,SW,224,5.0,18.0,100,0.02,,OVC050,0.02,VWS V12.07,2013-01-12 12:09:00,
2013-01-12 06:10:00,38.0,37.7,29.37,SW,215,10.0,19.0,99,0.02,,OVC050,0.02,VWS V12.07,2013-01-12 12:10:00,
2013-01-12 06:14:00,38.0,37.5,29.37,SW,214,5.0,19.0,98,0.02,,OVC050,0.02,VWS V12.07,2013-01-12 12:14:00,
2013-01-12 06:15:00,38.0,37.2,29.37,SW,219,6.0,19.0,97,0.02,,OVC050,0.02,VWS V12.07,2013-01-12 12:15:00,
2013-01-12 06:16:00,38.0,37.2,29.37,SW,216,2.0,19.0,97,0.02,,OVC050,0.02,VWS V12.07,2013-01-12 12:16:00,
2013-01-12 06:19:00,37.9,36.9,29.37,SW,233,5.0,11.0,96,0.02,,OVC050,0.02,VWS V12.07,2013-01-12 12:19:00,
2013-01-12 06:20:00,37.9,36.9,29.37,SSW,210,5.0,12.0,96,0.02,,OVC050,0.02,VWS V12.07,2013-01-12 12:20:00,
2013-01-12 06:21:00,37.9,36.9,29.37,SW,229,6.0,12.0,96,0.02,,OVC050,0.02,VWS V12.07,2013-01-12 12:21:00,
2013-01-12 06:25:00,37.6,36.6,29.37,SSW,203,5.0,12.0,96,0.02,,OVC050,0.02,VWS V12.07,2013-01-12 12:25:00,
2013-01-12 06:26:00,37.5,36.5,29.37,SSW,206,5.0,12.0,96,0.02,,OVC050,0.02,VWS V12.07,2013-01-12 12:26:00,
2013-01-12 06:30:00,37.2,35.9,29.37,SSW,209,8.0,13.0,95,0.02,,OVC050,0.02,VWS V12.07,2013-01-12 12:30:00,
2013-01-12 06:31:00,37.2,35.4,29.39,SW,221,7.0,13.0,93,0.02,,OVC050,0.02,VWS V12.07,2013-01-12 12:31:00,
2013-01-12 06:35:00,37.0,34.9,29.39,SW,224,9.0,13.0,92,0.02,,RA,0.02,VWS V12.07,2013-01-12 12:35:00,
2013-01-12 06:36:00,37.0,34.6,29.39,SW,222,14.0,14.0,91,0.02,,RA,0.02,VWS V12.07,2013-01-12 12:36:00,
2013-01-12 06:40:00,37.0,33.8,29.39,SSW,211,10.0,19.0,88,0.00,,RA,0.02,VWS V12.07,2013-01-12 12:40:00,
2013-01-12 06:41:00,37.0,33.8,29.39,SW,220,5.0,19.0,88,0.00,,RA,0.02,VWS V12.07,2013-01-12 12:41:00,
2013-01-12 06:45:00,36.9,33.4,29.39,SW,221,5.0,19.0,87,0.00,,RA,0.02,VWS V12.07,2013-01-12 12:45:00,
2013-01-12 06:46:00,36.9,33.4,29.40,SW,233,4.0,19.0,87,0.00,,RA,0.02,VWS V12.07,2013-01-12 12:46:00,
2013-01-12 06:50:00,36.9,33.1,29.40,SW,221,10.0,13.0,86,0.00,,OVC017,0.02,VWS V12.07,2013-01-12 12:50:00,
2013-01-12 06:51:00,36.9,33.1,29.40,SW,222,5.0,13.0,86,0.00,,OVC017,0.02,VWS V12.07,2013-01-12 12:51:00,
2013-01-12 06:56:00,36.9,32.8,29.40,WSW,244,4.0,13.0,85,0.00,,OVC017,0.02,VWS V12.07,2013-01-12 12:56:00,
2013-01-12 06:57:00,36.8,32.7,29.40,SSW,212,7.0,13.0,85,0.00,,OVC017,0.02,VWS V12.07,2013-01-12 12:57:00,
2013-01-12 07:01:00,36.6,32.5,29.41,SSW,205,6.0,13.0,85,0.00,,OVC017,0.02,VWS V12.07,2013-01-12 13:01:00,
2013-01-12 07:02:00,36.6,32.5,29.41,SW,226,7.0,13.0,85,0.00,,OVC017,0.02,VWS V12.07,2013-01-12 13:02:00,
2013-01-12 07:06:00,36.6,31.9,29.41,SW,221,18.0,18.0,83,0.00,,OVC017,0.02,VWS V12.07,2013-01-12 13:06:00,
2013-01-12 07:07:00,36.6,31.9,29.41,SW,224,9.0,18.0,83,0.00,,OVC017,0.02,VWS V12.07,2013-01-12 13:07:00,
2013-01-12 07:08:00,36.6,31.9,29.41,SW,225,11.0,18.0,83,0.00,,OVC017,0.02,VWS V12.07,2013-01-12 13:08:00,
2013-01-12 07:11:00,36.3,31.3,29.41,SW,217,9.0,18.0,82,0.00,,OVC017,0.02,VWS V12.07,2013-01-12 13:11:00,
2013-01-12 07:12:00,36.2,31.2,29.41,SW,222,9.0,18.0,82,0.00,,OVC017,0.02,VWS V12.07,2013-01-12 13:12:00,
2013-01-12 07:13:00,36.2,31.2,29.41,SW,233,7.0,18.0,82,0.00,,OVC017,0.02,VWS V12.07,2013-01-12 13:13:00,
2013-01-12 07:16:00,35.9,31.0,29.42,SW,222,6.0,18.0,82,0.00,,OVC017,0.02,VWS V12.07,2013-01-12 13:16:00,
2013-01-12 07:18:00,35.9,31.0,29.42,SSW,213,10.0,18.0,82,0.00,,OVC017,0.02,VWS V12.07,2013-01-12 13:18:00,
2013-01-12 07:21:00,35.8,30.5,29.42,WSW,238,9.0,14.0,81,0.00,,OVC017,0.02,VWS V12.07,2013-01-12 13:21:00,
2013-01-12 07:23:00,35.6,30.7,29.42,SW,232,13.0,18.0,82,0.00,,OVC017,0.02,VWS V12.07,2013-01-12 13:23:00,
2013-01-12 07:24:00,35.6,30.7,29.42,SSW,213,13.0,18.0,82,0.00,,OVC017,0.02,VWS V12.07,2013-01-12 13:24:00,
2013-01-12 07:27:00,35.5,30.6,29.42,SSW,198,7.0,18.0,82,0.00,,OVC017,0.02,VWS V12.07,2013-01-12 13:27:00,
2013-01-12 07:28:00,35.5,30.6,29.42,SW,229,6.0,18.0,82,0.00,,OVC017,0.02,VWS V12.07,2013-01-12 13:28:00,
2013-01-12 07:29:00,35.5,30.6,29.42,SW,233,5.0,16.0,82,0.00,,OVC017,0.02,VWS V12.07,2013-01-12 13:29:00,
2013-01-12 07:32:00,35.3,30.4,29.43,WSW,241,6.0,16.0,82,0.00,,OVC017,0.02,VWS V12.07,2013-01-12 13:32:00,
2013-01-12 07:33:00,35.2,30.6,29.43,SW,219,6.0,16.0,83,0.00,,OVC017,0.02,VWS V12.07,2013-01-12 13:33:00,
2013-01-12 07:34:00,35.2,30.6,29.43,SW,214,7.0,16.0,83,0.00,,OVC019,0.02,VWS V12.07,2013-01-12 13:34:00,
2013-01-12 07:37:00,35.0,30.4,29.43,SSW,212,5.0,16.0,83,0.00,,OVC019,0.02,VWS V12.07,2013-01-12 13:37:00,
2013-01-12 07:39:00,34.9,30.3,29.43,SW,224,5.0,13.0,83,0.00,,OVC019,0.02,VWS V12.07,2013-01-12 13:39:00,
2013-01-12 07:43:00,34.9,30.6,29.43,WSW,242,9.0,13.0,84,0.00,,OVC019,0.02,VWS V12.07,2013-01-12 13:43:00,
2013-01-12 07:44:00,34.7,30.4,29.43,SW,219,7.0,13.0,84,0.00,,OVC019,0.02,VWS V12.07,2013-01-12 13:44:00,
2013-01-12 07:48:00,34.6,30.3,29.45,SW,229,5.0,13.0,84,0.00,,OVC019,0.02,VWS V12.07,2013-01-12 13:48:00,
2013-01-12 07:49:00,34.4,30.1,29.45,WSW,243,6.0,13.0,84,0.00,,OVC019,0.02,VWS V12.07,2013-01-12 13:49:00,
2013-01-12 07:50:00,34.4,30.4,29.45,SSW,205,5.0,13.0,85,0.00,,OVC019,0.02,VWS V12.07,2013-01-12 13:50:00,
2013-01-12 07:53:00,34.3,29.4,29.45,SW,230,7.0,19.0,82,0.00,,OVC019,0.02,VWS V12.07,2013-01-12 13:53:00,
2013-01-12 07:54:00,34.3,29.4,29.45,SSW,198,12.0,19.0,82,0.00,,OVC019,0.02,VWS V12.07,2013-01-12 13:54:00,
2013-01-12 07:55:00,34.3,28.8,29.45,WSW,241,11.0,19.0,80,0.00,,OVC019,0.02,VWS V12.07,2013-01-12 13:55:00,
2013-01-12 07:59:00,34.1,28.6,29.45,SSW,207,9.0,16.0,80,0.00,,OVC019,0.02,VWS V12.07,2013-01-12 13:59:00,
2013-01-12 08:00:00,34.0,28.5,29.46,SW,219,9.0,16.0,80,0.00,,OVC019,0.02,VWS V12.07,2013-01-12 14:00:00,
2013-01-12 08:04:00,33.8,28.3,29.46,SW,225,9.0,16.0,80,0.00,,OVC019,0.02,VWS V12.07,2013-01-12 14:04:00,
2013-01-12 08:05:00,33.8,28.3,29.46,SSW,196,5.0,16.0,80,0.00,,OVC019,0.02,VWS V12.07,2013-01-12 14:05:00,
2013-01-12 08:09:00,33.5,28.0,29.46,WSW,244,4.0,16.0,80,0.00,,OVC019,0.02,VWS V12.07,2013-01-12 14:09:00,
2013-01-12 08:10:00,33.5,28.3,29.46,SW,214,5.0,16.0,81,0.00,,OVC019,0.02,VWS V12.07,2013-01-12 14:10:00,
2013-01-12 08:14:00,33.2,28.3,29.46,WSW,240,9.0,16.0,82,0.00,,OVC019,0.02,VWS V12.07,2013-01-12 14:14:00,
2013-01-12 08:15:00,33.2,28.6,29.46,SW,215,10.0,16.0,83,0.00,,OVC019,0.02,VWS V12.07,2013-01-12 14:15:00,
2013-01-12 08:16:00,33.1,28.5,29.48,West,269,9.0,16.0,83,0.00,,OVC019,0.02,VWS V12.07,2013-01-12 14:16:00,
2013-01-12 08:20:00,32.8,28.8,29.48,SSW,213,10.0,12.0,85,0.00,,OVC019,0.02,VWS V12.07,2013-01-12 14:20:00,
2013-01-12 08:21:00,32.7,28.7,29.48,South,186,7.0,13.0,85,0.00,,OVC019,0.02,VWS V12.07,2013-01-12 14:21:00,
2013-01-12 08:25:00,32.2,28.2,29.48,WSW,244,5.0,14.0,85,0.00,,OVC019,0.02,VWS V12.07,2013-01-12 14:25:00,
2013-01-12 08:27:00,32.1,28.1,29.48,SSW,211,7.0,14.0,85,0.00,,OVC019,0.02,VWS V12.07,2013-01-12 14:27:00,
2013-01-12 08:30:00,31.8,27.5,29.48,SW,226,11.0,13.0,84,0.00,,OVC019,0.02,VWS V12.07,2013-01-12 14:30:00,
2013-01-12 08:31:00,31.8,27.2,29.50,SSW,210,8.0,14.0,83,0.00,,OVC019,0.02,VWS V12.07,2013-01-12 14:31:00,
2013-01-12 08:32:00,31.5,26.9,29.50,SSW,205,11.0,14.0,83,0.00,,OVC019,0.02,VWS V12.07,2013-01-12 14:32:00,
2013-01-12 08:35:00,31.3,26.5,29.50,WSW,238,5.0,14.0,82,0.00,,OVC017,0.02,VWS V12.07,2013-01-12 14:35:00,
2013-01-12 08:36:00,31.3,26.5,29.50,West,259,7.0,14.0,82,0.00,,OVC017,0.02,VWS V12.07,2013-01-12 14:36:00,
2013-01-12 08:37:00,31.2,26.4,29.50,SW,225,6.0,14.0,82,0.00,,OVC017,0.02,VWS V12.07,2013-01-12 14:37:00,
2013-01-12 08:40:00,31.2,26.4,29.50,SSW,195,10.0,12.0,82,0.00,,OVC017,0.02,VWS V12.07,2013-01-12 14:40:00,
2013-01-12 08:41:00,31.0,26.2,29.50,WSW,244,6.0,16.0,82,0.00,,OVC017,0.02,VWS V12.07,2013-01-12 14:41:00,
2013-01-12 08:42:00,31.0,26.2,29.50,SW,220,9.0,16.0,82,0.00,,OVC017,0.02,VWS V12.07,2013-01-12 14:42:00,
2013-01-12 08:45:00,31.0,26.2,29.51,SW,229,8.0,16.0,82,0.00,,OVC017,0.02,VWS V12.07,2013-01-12 14:45:00,
2013-01-12 08:46:00,31.0,26.2,29.51,SW,231,2.0,16.0,82,0.00,,OVC017,0.02,VWS V12.07,2013-01-12 14:46:00,
2013-01-12 08:47:00,30.9,26.4,29.51,West,270,5.0,16.0,83,0.00,,OVC017,0.02,VWS V12.07,2013-01-12 14:47:00,
2013-01-12 08:50:00,30.9,26.4,29.51,South,185,7.0,11.0,83,0.00,,OVC017,0.02,VWS V12.07,2013-01-12 14:50:00,
2013-01-12 08:51:00,30.9,26.4,29.51,SW,221,6.0,11.0,83,0.00,,OVC017,0.02,VWS V12.07,2013-01-12 14:51:00,
2013-01-12 08:52:00,30.9,26.4,29.51,WSW,237,6.0,11.0,83,0.00,,OVC017,0.02,VWS V12.07,2013-01-12 14:52:00,
2013-01-12 08:53:00,30.9,26.4,29.51,SSW,209,6.0,11.0,83,0.00,,OVC017,0.02,VWS V12.07,2013-01-12 14:53:00,
2013-01-12 08:55:00,30.7,26.2,29.51,SSW,212,9.0,16.0,83,0.00,,OVC017,0.02,VWS V12.07,2013-01-12 14:55:00,
2013-01-12 08:57:00,30.6,26.1,29.51,SSW,205,10.0,16.0,83,0.00,,OVC017,0.02,VWS V12.07,2013-01-12 14:57:00,
2013-01-12 08:58:00,30.6,26.1,29.51,WSW,239,6.0,11.0,83,0.00,,OVC017,0.02,VWS V12.07,2013-01-12 14:58:00,
2013-01-12 09:00:00,30.4,26.1,29.51,WSW,245,9.0,16.0,84,0.00,,OVC017,0.02,VWS V12.07,2013-01-12 15:00:00,
2013-01-12 09:02:00,30.3,25.8,29.51,SW,232,5.0,16.0,83,0.00,,OVC017,0.02,VWS V12.07,2013-01-12 15:02:00,
2013-01-12 09:03:00,30.3,25.5,29.51,SW,224,7.0,16.0,82,0.00,,OVC017,0.02,VWS V12.07,2013-01-12 15:03:00,
2013-01-12 09:06:00,30.3,25.2,29.51,SW,227,5.0,16.0,81,0.00,,OVC017,0.02,VWS V12.07,2013-01-12 15:06:00,
2013-01-12 09:07:00,30.3,25.2,29.51,SSW,203,4.0,16.0,81,0.00,,OVC017,0.02,VWS V12.07,2013-01-12 15:07:00,
2013-01-12 09:09:00,30.1,25.0,29.51,SSW,203,7.0,11.0,81,0.00,,OVC017,0.02,VWS V12.07,2013-01-12 15:09:00,
2013-01-12 09:11:00,30.1,25.3,29.51,SSW,200,7.0,11.0,82,0.00,,OVC017,0.02,VWS V12.07,2013-01-12 15:11:00,
2013-01-12 09:12:00,30.0,24.9,29.51,SSW,212,6.0,13.0,81,0.00,,OVC017,0.02,VWS V12.07,2013-01-12 15:12:00,
2013-01-12 09:13:00,30.0,24.9,29.51,SSW,207,7.0,13.0,81,0.00,,OVC017,0.02,VWS V12.07,2013-01-12 15:13:00,
2013-01-12 09:14:00,30.0,24.9,29.51,South,178,5.0,13.0,81,0.00,,OVC017,0.02,VWS V12.07,2013-01-12 15:14:00,
2013-01-12 09:16:00,29.7,24.0,29.52,SW,226,7.0,17.0,79,0.00,,OVC017,0.02,VWS V12.07,2013-01-12 15:16:00,
2013-01-12 09:18:00,29.5,23.5,29.52,WSW,254,13.0,17.0,78,0.00,,OVC017,0.02,VWS V12.07,2013-01-12 15:18:00,
2013-01-12 09:19:00,29.3,23.3,29.52,SSW,205,6.0,16.0,78,0.00,,OVC017,0.02,VWS V12.07,2013-01-12 15:19:00,
2013-01-12 09:21:00,29.1,23.4,29.52,SW,229,5.0,16.0,79,0.00,,OVC017,0.02,VWS V12.07,2013-01-12 15:21:00,
2013-01-12 09:23:00,29.1,23.4,29.52,SW,216,11.0,16.0,79,0.00,,OVC017,0.02,VWS V12.07,2013-01-12 15:23:00,
2013-01-12 09:24:00,29.0,23.6,29.52,SW,220,10.0,16.0,80,0.00,,OVC017,0.02,VWS V12.07,2013-01-12 15:24:00,
2013-01-12 09:27:00,28.7,22.7,29.52,SW,231,9.0,16.0,78,0.00,,OVC017,0.02,VWS V12.07,2013-01-12 15:27:00,
2013-01-12 09:28:00,28.5,22.5,29.52,SW,230,15.0,19.0,78,0.00,,OVC017,0.02,VWS V12.07,2013-01-12 15:28:00,
2013-01-12 09:30:00,28.5,22.8,29.52,SSW,213,5.0,19.0,79,0.00,,OVC017,0.02,VWS V12.07,2013-01-12 15:30:00,
2013-01-12 09:32:00,28.4,22.4,29.55,SSW,213,6.0,19.0,78,0.00,,OVC017,0.02,VWS V12.07,2013-01-12 15:32:00,
2013-01-12 09:34:00,28.4,22.4,29.55,SW,231,10.0,19.0,78,0.00,,OVC017,0.02,VWS V12.07,2013-01-12 15:34:00,
2013-01-12 09:35:00,28.4,22.1,29.55,SSW,208,12.0,19.0,77,0.00,,OVC021,0.02,VWS V12.07,2013-01-12 15:35:00,
2013-01-12 09:37:00,28.2,21.6,29.55,WSW,256,6.0,19.0,76,0.00,,OVC021,0.02,VWS V12.07,2013-01-12 15:37:00,
2013-01-12 09:39:00,28.1,21.5,29.55,SW,231,7.0,16.0,76,0.00,,OVC021,0.02,VWS V12.07,2013-01-12 15:39:00,
2013-01-12 09:40:00,28.1,21.5,29.55,SW,223,10.0,16.0,76,0.00,,OVC021,0.02,VWS V12.07,2013-01-12 15:40:00,
2013-01-12 09:42:00,28.1,21.5,29.55,SW,229,11.0,16.0,76,0.00,,OVC021,0.02,VWS V12.07,2013-01-12 15:42:00,
2013-01-12 09:44:00,27.9,21.0,29.55,SW,231,8.0,16.0,75,0.00,,OVC021,0.02,VWS V12.07,2013-01-12 15:44:00,
2013-01-12 09:45:00,27.9,21.0,29.55,SW,231,3.0,16.0,75,0.00,,OVC021,0.02,VWS V12.07,2013-01-12 15:45:00,
2013-01-12 09:47:00,27.9,21.3,29.56,SW,224,6.0,16.0,76,0.00,,OVC021,0.02,VWS V12.07,2013-01-12 15:47:00,
2013-01-12 09:49:00,27.8,21.2,29.56,WSW,245,4.0,15.0,76,0.00,,OVC024,0.02,VWS V12.07,2013-01-12 15:49:00,
2013-01-12 09:50:00,27.8,21.2,29.56,SW,229,6.0,15.0,76,0.00,,OVC024,0.02,VWS V12.07,2013-01-12 15:50:00,
2013-01-12 09:51:00,27.8,21.2,29.56,SW,233,6.0,15.0,76,0.00,,OVC024,0.02,VWS V12.07,2013-01-12 15:51:00,
2013-01-12 09:52:00,27.6,20.7,29.56,WSW,237,11.0,15.0,75,0.00,,OVC024,0.02,VWS V12.07,2013-01-12 15:52:00,
2013-01-12 09:54:00,27.5,20.9,29.56,SSW,211,6.0,15.0,76,0.00,,OVC024,0.02,VWS V12.07,2013-01-12 15:54:00,
2013-01-12 09:55:00,27.5,20.9,29.56,WSW,238,7.0,15.0,76,0.00,,OVC024,0.02,VWS V12.07,2013-01-12 15:55:00,
2013-01-12 09:56:00,27.5,20.9,29.56,SW,224,9.0,15.0,76,0.00,,OVC024,0.02,VWS V12.07,2013-01-12 15:56:00,
2013-01-12 09:58:00,27.3,20.8,29.56,WSW,254,6.0,15.0,76,0.00,,OVC024,0.02,VWS V12.07,2013-01-12 15:58:00,
2013-01-12 09:59:00,27.2,20.6,29.56,SSW,212,6.0,14.0,76,0.00,,OVC024,0.02,VWS V12.07,2013-01-12 15:59:00,
2013-01-12 10:01:00,27.2,21.0,29.57,SW,229,10.0,14.0,77,0.00,,OVC024,0.02,VWS V12.07,2013-01-12 16:01:00,
2013-01-12 10:03:00,27.0,20.8,29.57,SSW,198,5.0,15.0,77,0.00,,OVC024,0.02,VWS V12.07,2013-01-12 16:03:00,
2013-01-12 10:04:00,27.0,20.8,29.57,SW,233,5.0,17.0,77,0.00,,OVC024,0.02,VWS V12.07,2013-01-12 16:04:00,
2013-01-12 10:06:00,27.0,20.8,29.57,South,177,7.0,17.0,77,0.00,,OVC024,0.02,VWS V12.07,2013-01-12 16:06:00,
2013-01-12 10:07:00,27.0,20.8,29.57,SW,221,10.0,17.0,77,0.00,,OVC024,0.02,VWS V12.07,2013-01-12 16:07:00,
2013-01-12 10:09:00,26.9,20.7,29.57,WSW,254,5.0,15.0,77,0.00,,OVC024,0.02,VWS V12.07,2013-01-12 16:09:00,
2013-01-12 10:11:00,26.7,20.2,29.57,WSW,238,6.0,16.0,76,0.00,,OVC024,0.02,VWS V12.07,2013-01-12 16:11:00,
2013-01-12 10:12:00,26.7,20.5,29.57,WSW,238,6.0,16.0,77,0.00,,OVC024,0.02,VWS V12.07,2013-01-12 16:12:00,
2013-01-12 10:14:00,26.7,20.8,29.57,SSW,203,4.0,16.0,78,0.00,,OVC024,0.02,VWS V12.07,2013-01-12 16:14:00,
2013-01-12 10:15:00,26.7,20.8,29.57,SW,218,5.0,16.0,78,0.00,,OVC024,0.02,VWS V12.07,2013-01-12 16:15:00,
2013-01-12 10:16:00,26.6,20.4,29.59,SW,215,9.0,16.0,77,0.00,,OVC024,0.02,VWS V12.07,2013-01-12 16:16:00,
2013-01-12 10:17:00,26.6,20.4,29.59,SW,220,5.0,16.0,77,0.00,,OVC024,0.02,VWS V12.07,2013-01-12 16:17:00,
2013-01-12 10:20:00,26.4,20.2,29.59,WSW,240,9.0,13.0,77,0.00,,OVC024,0.02,VWS V12.07,2013-01-12 16:20:00,
2013-01-12 10:21:00,26.3,19.8,29.59,SW,217,7.0,13.0,76,0.00,,OVC024,0.02,VWS V12.07,2013-01-12 16:21:00,
2013-01-12 10:22:00,26.3,20.1,29.59,SW,224,5.0,13.0,77,0.00,,OVC024,0.02,VWS V12.07,2013-01-12 16:22:00,
2013-01-12 10:25:00,26.3,20.1,29.59,SSW,203,7.0,14.0,77,0.00,,OVC024,0.02,VWS V12.07,2013-01-12 16:25:00,
2013-01-12 10:26:00,26.3,20.1,29.59,SW,231,10.0,20.0,77,0.00,,OVC024,0.02,VWS V12.07,2013-01-12 16:26:00,
2013-01-12 10:27:00,26.3,20.4,29.59,SW,233,5.0,20.0,78,0.00,,OVC024,0.02,VWS V12.07,2013-01-12 16:27:00,
2013-01-12 10:30:00,26.0,19.8,29.60,SW,218,10.0,13.0,77,0.00,,OVC024,0.02,VWS V12.07,2013-01-12 16:30:00,
2013-01-12 10:31:00,26.0,19.8,29.60,SW,229,6.0,13.0,77,0.00,,OVC024,0.02,VWS V12.07,2013-01-12 16:31:00,
2013-01-12 10:33:00,25.8,19.9,29.60,WSW,250,4.0,13.0,78,0.00,,OVC024,0.02,VWS V12.07,2013-01-12 16:33:00,
2013-01-12 10:35:00,25.7,19.8,29.60,SSW,194,5.0,13.0,78,0.00,,OVC019,0.02,VWS V12.07,2013-01-12 16:35:00,
2013-01-12 10:36:00,25.7,19.8,29.60,WSW,240,7.0,13.0,78,0.00,,OVC019,0.02,VWS V12.07,2013-01-12 16:36:00,
2013-01-12 10:37:00,25.7,19.8,29.60,WSW,245,5.0,13.0,78,0.00,,OVC019,0.02,VWS V12.07,2013-01-12 16:37:00,
2013-01-12 10:38:00,25.6,19.7,29.60,SW,233,5.0,11.0,78,0.00,,OVC019,0.02,VWS V12.07,2013-01-12 16:38:00,
2013-01-12 10:41:00,25.4,19.5,29.60,SSW,196,7.0,11.0,78,0.00,,OVC019,0.02,VWS V12.07,2013-01-12 16:41:00,
2013-01-12 10:42:00,25.4,19.8,29.60,WSW,251,6.0,11.0,79,0.00,,OVC019,0.02,VWS V12.07,2013-01-12 16:42:00,
2013-01-12 10:44:00,25.3,19.4,29.60,SW,233,5.0,13.0,78,0.00,,OVC019,0.02,VWS V12.07,2013-01-12 16:44:00,
2013-01-12 10:46:00,25.0,19.1,29.61,SSW,206,6.0,13.0,78,0.00,,OVC019,0.02,VWS V12.07,2013-01-12 16:46:00,
2013-01-12 10:47:00,25.0,19.1,29.61,SSW,211,4.0,13.0,78,0.00,,OVC019,0.02,VWS V12.07,2013-01-12 16:47:00,
2013-01-12 10:49:00,24.8,19.2,29.61,SW,221,11.0,11.0,79,0.00,,OVC017,0.02,VWS V12.07,2013-01-12 16:49:00,
2013-01-12 10:51:00,24.8,18.9,29.61,SSW,206,3.0,12.0,78,0.00,,OVC017,0.02,VWS V12.07,2013-01-12 16:51:00,
2013-01-12 10:52:00,24.8,19.2,29.61,SSW,205,7.0,12.0,79,0.00,,OVC017,0.02,VWS V12.07,2013-01-12 16:52:00,
2013-01-12 10:54:00,24.7,19.1,29.61,SW,226,3.0,12.0,79,0.00,,OVC017,0.02,VWS V12.07,2013-01-12 16:54:00,
2013-01-12 10:56:00,24.7,18.8,29.61,SSW,207,5.0,12.0,78,0.00,,OVC017,0.02,VWS V12.07,2013-01-12 16:56:00,
2013-01-12 10:57:00,24.7,19.1,29.61,SW,230,3.0,12.0,79,0.00,,OVC017,0.02,VWS V12.07,2013-01-12 16:57:00,
2013-01-12 11:00:00,24.8,19.2,29.61,SSW,203,6.0,10.0,79,0.00,,OVC017,0.02,VWS V12.07,2013-01-12 17:00:00,
2013-01-12 11:01:00,24.7,19.1,29.61,SSW,203,8.0,13.0,79,0.00,,OVC017,0.02,VWS V12.07,2013-01-12 17:01:00,
2013-01-12 11:02:00,24.7,18.8,29.61,SSW,195,3.0,13.0,78,0.00,,OVC017,0.02,VWS V12.07,2013-01-12 17:02:00,
2013-01-12 11:05:00,24.8,19.2,29.61,SSW,203,3.0,13.0,79,0.00,,OVC017,0.02,VWS V12.07,2013-01-12 17:05:00,
2013-01-12 11:06:00,24.8,19.2,29.61,SSW,207,6.0,13.0,79,0.00,,OVC017,0.02,VWS V12.07,2013-01-12 17:06:00,
2013-01-12 11:07:00,24.8,19.2,29.61,WSW,237,3.0,13.0,79,0.00,,OVC017,0.02,VWS V12.07,2013-01-12 17:07:00,
2013-01-12 11:08:00,24.8,19.5,29.61,SSW,212,6.0,13.0,80,0.00,,OVC017,0.02,VWS V12.07,2013-01-12 17:08:00,
2013-01-12 11:10:00,24.8,19.2,29.61,SW,217,3.0,10.0,79,0.00,,OVC017,0.02,VWS V12.07,2013-01-12 17:10:00,
2013-01-12 11:11:00,24.8,19.2,29.61,SSW,205,6.0,10.0,79,0.00,,OVC017,0.02,VWS V12.07,2013-01-12 17:11:00,
2013-01-12 11:13:00,24.8,18.9,29.61,SW,215,5.0,10.0,78,0.00,,OVC017,0.02,VWS V12.07,2013-01-12 17:13:00,
2013-01-12 11:15:00,24.8,19.2,29.63,SSW,198,8.0,11.0,79,0.00,,OVC017,0.02,VWS V12.07,2013-01-12 17:15:00,
2013-01-12 11:17:00,24.5,18.3,29.63,SW,229,3.0,11.0,77,0.00,,OVC017,0.02,VWS V12.07,2013-01-12 17:17:00,
2013-01-12 11:18:00,24.5,18.3,29.63,SW,219,5.0,11.0,77,0.00,,OVC017,0.02,VWS V12.07,2013-01-12 17:18:00,
2013-01-12 11:20:00,24.2,18.0,29.63,WSW,243,4.0,13.0,77,0.00,,OVC017,0.02,VWS V12.07,2013-01-12 17:20:00,
2013-01-12 11:22:00,24.4,18.5,29.63,SSW,204,11.0,13.0,78,0.00,,OVC017,0.02,VWS V12.07,2013-01-12 17:22:00,
2013-01-12 11:23:00,24.4,18.5,29.63,SSW,210,5.0,13.0,78,0.00,,OVC017,0.02,VWS V12.07,2013-01-12 17:23:00,
2013-01-12 11:26:00,24.1,17.6,29.63,SW,222,4.0,17.0,76,0.00,,OVC017,0.02,VWS V12.07,2013-01-12 17:26:00,
2013-01-12 11:28:00,24.1,17.6,29.63,SSW,200,4.0,17.0,76,0.00,,OVC017,0.02,VWS V12.07,2013-01-12 17:28:00,
2013-01-12 11:29:00,23.9,17.5,29.63,SSW,212,4.0,10.0,76,0.00,,OVC017,0.02,VWS V12.07,2013-01-12 17:29:00,
2013-01-12 11:31:00,23.9,17.5,29.64,SW,230,5.0,10.0,76,0.00,,OVC017,0.02,VWS V12.07,2013-01-12 17:31:00,
2013-01-12 11:33:00,23.9,17.5,29.64,SW,229,4.0,10.0,76,0.00,,OVC017,0.02,VWS V12.07,2013-01-12 17:33:00,
2013-01-12 11:34:00,23.9,17.5,29.64,South,189,7.0,10.0,76,0.00,,OVC015,0.02,VWS V12.07,2013-01-12 17:34:00,
2013-01-12 11:36:00,23.9,17.8,29.64,SW,231,4.0,10.0,77,0.00,,OVC015,0.02,VWS V12.07,2013-01-12 17:36:00,
2013-01-12 11:38:00,23.8,17.4,29.64,SSW,210,4.0,7.0,76,0.00,,OVC015,0.02,VWS V12.07,2013-01-12 17:38:00,
2013-01-12 11:39:00,23.8,17.7,29.64,WSW,243,4.0,10.0,77,0.00,,OVC015,0.02,VWS V12.07,2013-01-12 17:39:00,
2013-01-12 11:41:00,23.8,17.4,29.64,SSE,155,2.0,10.0,76,0.00,,OVC020,0.02,VWS V12.07,2013-01-12 17:41:00,
2013-01-12 11:43:00,23.8,17.4,29.64,SSW,207,5.0,10.0,76,0.00,,OVC020,0.02,VWS V12.07,2013-01-12 17:43:00,
2013-01-12 11:44:00,23.8,17.4,29.64,SSW,199,6.0,10.0,76,0.00,,OVC015,0.02,VWS V12.07,2013-01-12 17:44:00,
2013-01-12 11:46:00,23.8,17.7,29.64,SSW,193,5.0,10.0,77,0.00,,OVC015,0.02,VWS V12.07,2013-01-12 17:46:00,
2013-01-12 11:48:00,23.6,17.2,29.64,SW,217,6.0,10.0,76,0.00,,OVC020,0.02,VWS V12.07,2013-01-12 17:48:00,
2013-01-12 11:49:00,23.6,17.2,29.64,SW,226,5.0,10.0,76,0.00,,OVC020,0.02,VWS V12.07,2013-01-12 17:49:00,
2013-01-12 11:51:00,23.6,17.5,29.64,SSW,200,2.0,10.0,77,0.00,,OVC020,0.02,VWS V12.07,2013-01-12 17:51:00,
2013-01-12 11:54:00,23.6,17.5,29.64,SW,223,3.0,10.0,77,0.00,,OVC020,0.02,VWS V12.07,2013-01-12 17:54:00,
2013-01-12 11:55:00,23.8,17.7,29.64,SSW,209,2.0,10.0,77,0.00,,OVC020,0.02,VWS V12.07,2013-01-12 17:55:00,
2013-01-12 11:57:00,23.6,17.5,29.64,SW,235,5.0,10.0,77,0.00,,OVC020,0.02,VWS V12.07,2013-01-12 17:57:00,
2013-01-12 11:59:00,23.6,17.2,29.64,WSW,238,4.0,7.0,76,0.00,,OVC020,0.02,VWS V12.07,2013-01-12 17:59:00,
2013-01-12 12:00:00,23.5,17.1,29.64,SW,225,3.0,7.0,76,0.00,,OVC020,0.02,VWS V12.07,2013-01-12 18:00:00,
2013-01-12 12:02:00,23.5,17.1,29.65,WSW,243,3.0,7.0,76,0.00,,OVC020,0.02,VWS V12.07,2013-01-12 18:02:00,
2013-01-12 12:04:00,23.5,17.4,29.65,SW,231,1.0,7.0,77,0.00,,OVC020,0.02,VWS V12.07,2013-01-12 18:04:00,
2013-01-12 12:05:00,23.5,17.4,29.65,SW,231,1.0,7.0,77,0.00,,OVC020,0.02,VWS V12.07,2013-01-12 18:05:00,
2013-01-12 12:07:00,23.5,17.1,29.65,SW,219,3.0,7.0,76,0.00,,OVC020,0.02,VWS V12.07,2013-01-12 18:07:00,
2013-01-12 12:09:00,23.3,16.9,29.65,SW,232,2.0,6.0,76,0.00,,OVC020,0.02,VWS V12.07,2013-01-12 18:09:00,
2013-01-12 12:10:00,23.3,16.9,29.65,SW,219,2.0,6.0,76,0.00,,OVC020,0.02,VWS V12.07,2013-01-12 18:10:00,
2013-01-12 12:14:00,23.3,16.9,29.65,SW,236,1.0,10.0,76,0.00,,OVC020,0.02,VWS V12.07,2013-01-12 18:14:00,
2013-01-12 12:15:00,23.2,17.1,29.66,SW,226,4.0,10.0,77,0.00,,OVC020,0.02,VWS V12.07,2013-01-12 18:15:00,
2013-01-12 12:16:00,23.2,17.1,29.66,SW,219,6.0,10.0,77,0.00,,OVC020,0.02,VWS V12.07,2013-01-12 18:16:00,
2013-01-12 12:19:00,23.3,17.5,29.66,WSW,253,2.0,9.0,78,0.00,,OVC020,0.02,VWS V12.07,2013-01-12 18:19:00,
2013-01-12 12:20:00,23.3,17.2,29.66,SSW,195,4.0,9.0,77,0.00,,OVC020,0.02,VWS V12.07,2013-01-12 18:20:00,
2013-01-12 12:21:00,23.3,17.2,29.66,SSW,207,5.0,9.0,77,0.00,,OVC020,0.02,VWS V12.07,2013-01-12 18:21:00,
2013-01-12 12:24:00,23.2,17.1,29.66,SW,218,4.0,9.0,77,0.00,,OVC020,0.02,VWS V12.07,2013-01-12 18:24:00,
2013-01-12 12:25:00,23.3,17.2,29.66,SW,219,4.0,9.0,77,0.00,,OVC020,0.02,VWS V12.07,2013-01-12 18:25:00,
2013-01-12 12:26:00,23.3,17.2,29.66,SW,219,3.0,9.0,77,0.00,,OVC020,0.02,VWS V12.07,2013-01-12 18:26:00,
2013-01-12 12:30:00,23.0,16.6,29.66,SW,231,6.0,8.0,76,0.00,,OVC020,0.02,VWS V12.07,2013-01-12 18:30:00,
2013-01-12 12:31:00,23.0,16.6,29.66,SSW,203,7.0,11.0,76,0.00,,OVC020,0.02,VWS V12.07,2013-01-12 18:31:00,
2013-01-12 12:32:00,22.9,16.5,29.66,South,189,2.0,11.0,76,0.00,,OVC020,0.02,VWS V12.07,2013-01-12 18:32:00,
2013-01-12 12:35:00,23.0,16.9,29.66,SSW,212,2.0,11.0,77,0.00,,OVC020,0.02,VWS V12.07,2013-01-12 18:35:00,
2013-01-12 12:36:00,23.0,16.9,29.66,SSW,212,1.0,11.0,77,0.00,,OVC020,0.02,VWS V12.07,2013-01-12 18:36:00,
2013-01-12 12:37:00,23.2,17.4,29.66,SSW,194,2.0,11.0,78,0.00,,OVC020,0.02,VWS V12.07,2013-01-12 18:37:00,
2013-01-12 12:40:00,23.0,16.9,29.66,SW,217,5.0,9.0,77,0.00,,OVC020,0.02,VWS V12.07,2013-01-12 18:40:00,
2013-01-12 12:41:00,23.0,16.9,29.66,SW,231,5.0,9.0,77,0.00,,OVC020,0.02,VWS V12.07,2013-01-12 18:41:00,
2013-01-12 12:43:00,23.0,17.2,29.66,SSW,212,6.0,9.0,78,0.00,,OVC020,0.02,VWS V12.07,2013-01-12 18:43:00,
2013-01-12 12:45:00,23.0,17.2,29.67,SW,221,5.0,10.0,78,0.00,,OVC020,0.02,VWS V12.07,2013-01-12 18:45:00,
2013-01-12 12:46:00,23.0,16.9,29.67,SW,215,6.0,12.0,77,0.00,,OVC020,0.02,VWS V12.07,2013-01-12 18:46:00,
2013-01-12 12:48:00,22.9,16.5,29.67,SSW,197,4.0,12.0,76,0.00,,OVC020,0.02,VWS V12.07,2013-01-12 18:48:00,
2013-01-12 12:51:00,22.9,17.1,29.67,SW,215,5.0,10.0,78,0.00,,OVC020,0.02,VWS V12.07,2013-01-12 18:51:00,
2013-01-12 12:53:00,22.9,17.1,29.67,SSW,211,7.0,10.0,78,0.00,,OVC020,0.02,VWS V12.07,2013-01-12 18:53:00,
2013-01-12 12:56:00,22.9,17.1,29.67,SW,217,8.0,10.0,78,0.00,,OVC020,0.02,VWS V12.07,2013-01-12 18:56:00,
2013-01-12 12:58:00,22.9,17.1,29.67,SSW,208,6.0,10.0,78,0.00,,OVC020,0.02,VWS V12.07,2013-01-12 18:58:00,
2013-01-12 13:01:00,22.9,17.1,29.68,SSW,199,6.0,9.0,78,0.00,,OVC020,0.02,VWS V12.07,2013-01-12 19:01:00,
2013-01-12 13:02:00,22.9,17.1,29.68,SW,234,3.0,9.0,78,0.00,,OVC020,0.02,VWS V12.07,2013-01-12 19:02:00,
2013-01-12 13:03:00,23.0,17.2,29.68,SSW,205,3.0,9.0,78,0.00,,OVC020,0.02,VWS V12.07,2013-01-12 19:03:00,
2013-01-12 13:06:00,22.9,16.5,29.68,West,260,4.0,11.0,76,0.00,,OVC020,0.02,VWS V12.07,2013-01-12 19:06:00,
2013-01-12 13:07:00,22.9,16.5,29.68,SW,215,3.0,11.0,76,0.00,,OVC020,0.02,VWS V12.07,2013-01-12 19:07:00,
2013-01-12 13:08:00,22.9,16.5,29.68,SW,221,3.0,9.0,76,0.00,,OVC020,0.02,VWS V12.07,2013-01-12 19:08:00,
2013-01-12 13:12:00,22.9,16.5,29.68,WSW,238,6.0,10.0,76,0.00,,OVC020,0.02,VWS V12.07,2013-01-12 19:12:00,
2013-01-12 13:13:00,22.7,16.3,29.68,SW,219,2.0,10.0,76,0.00,,OVC020,0.02,VWS V12.07,2013-01-12 19:13:00,
2013-01-12 13:17:00,22.9,16.5,29.68,SSW,196,1.0,10.0,76,0.00,,OVC020,0.02,VWS V12.07,2013-01-12 19:17:00,
2013-01-12 13:18:00,22.9,16.5,29.68,WSW,245,3.0,10.0,76,0.00,,OVC020,0.02,VWS V12.07,2013-01-12 19:18:00,
2013-01-12 13:22:00,22.7,16.3,29.68,WSW,258,3.0,9.0,76,0.00,,OVC020,0.02,VWS V12.07,2013-01-12 19:22:00,
2013-01-12 13:23:00,22.5,16.1,29.68,SW,221,3.0,9.0,76,0.00,,OVC020,0.02,VWS V12.07,2013-01-12 19:23:00,
2013-01-12 13:27:00,22.7,16.3,29.68,SW,219,3.0,9.0,76,0.00,,OVC020,0.02,VWS V12.07,2013-01-12 19:27:00,
2013-01-12 13:28:00,22.7,16.3,29.68,SW,220,1.0,9.0,76,0.00,,OVC020,0.02,VWS V12.07,2013-01-12 19:28:00,
2013-01-12 13:32:00,22.7,16.6,29.69,SW,219,3.0,8.0,77,0.00,,OVC020,0.02,VWS V12.07,2013-01-12 19:32:00,
2013-01-12 13:33:00,22.7,16.6,29.69,SSW,211,9.0,9.0,77,0.00,,OVC020,0.02,VWS V12.07,2013-01-12 19:33:00,
2013-01-12 13:34:00,22.7,16.3,29.69,SW,226,4.0,9.0,76,0.00,,OVC020,0.02,VWS V12.07,2013-01-12 19:34:00,
2013-01-12 13:38:00,22.5,16.1,29.69,SSW,209,3.0,9.0,76,0.00,,OVC018,0.02,VWS V12.07,2013-01-12 19:38:00,
2013-01-12 13:39:00,22.5,16.1,29.69,SSW,198,3.0,9.0,76,0.00,,OVC018,0.02,VWS V12.07,2013-01-12 19:39:00,
2013-01-12 13:43:00,22.4,16.0,29.69,SSW,206,8.0,10.0,76,0.00,,OVC018,0.02,VWS V12.07,2013-01-12 19:43:00,
2013-01-12 13:44:00,22.4,16.3,29.69,SW,219,5.0,11.0,77,0.00,,OVC018,0.02,VWS V12.07,2013-01-12 19:44:00,
2013-01-12 13:48:00,22.2,15.8,29.71,SW,236,5.0,0.0,76,0.00,,OVC018,0.02,VWS V12.07,2013-01-12 19:48:00,
2013-01-12 13:49:00,22.2,15.8,29.71,SSW,204,6.0,11.0,76,0.00,,OVC018,0.02,VWS V12.07,2013-01-12 19:49:00,
2013-01-12 13:53:00,22.1,15.7,29.71,SW,217,5.0,13.0,76,0.00,,OVC018,0.02,VWS V12.07,2013-01-12 19:53:00,
2013-01-12 13:54:00,22.1,15.7,29.71,SW,232,4.0,13.0,76,0.00,,OVC018,0.02,VWS V12.07,2013-01-12 19:54:00,
2013-01-12 13:55:00,22.1,15.7,29.71,SSW,212,3.0,13.0,76,0.00,,OVC018,0.02,VWS V12.07,2013-01-12 19:55:00,
2013-01-12 13:58:00,22.1,15.7,29.71,South,184,5.0,10.0,76,0.00,,OVC018,0.02,VWS V12.07,2013-01-12 19:58:00,
2013-01-12 13:59:00,21.9,15.5,29.71,SW,233,4.0,10.0,76,0.00,,OVC018,0.02,VWS V12.07,2013-01-12 19:59:00,
2013-01-12 14:00:00,21.9,15.5,29.72,SW,223,1.0,10.0,76,0.00,,OVC018,0.02,VWS V12.07,2013-01-12 20:00:00,
2013-01-12 14:03:00,21.8,15.1,29.72,SW,234,2.0,10.0,75,0.00,,OVC018,0.02,VWS V12.07,2013-01-12 20:03:00,
2013-01-12 14:04:00,21.8,15.1,29.72,SW,231,3.0,10.0,75,0.00,,OVC018,0.02,VWS V12.07,2013-01-12 20:04:00,
2013-01-12 14:05:00,21.8,15.1,29.72,SSW,212,2.0,10.0,75,0.00,,OVC018,0.02,VWS V12.07,2013-01-12 20:05:00,
2013-01-12 14:09:00,21.8,15.1,29.72,South,184,4.0,14.0,75,0.00,,OVC018,0.02,VWS V12.07,2013-01-12 20:09:00,
2013-01-12 14:10:00,21.8,15.1,29.72,SW,225,1.0,14.0,75,0.00,,OVC018,0.02,VWS V12.07,2013-01-12 20:10:00,
2013-01-12 14:14:00,21.9,15.5,29.72,SSW,200,3.0,14.0,76,0.00,,OVC018,0.02,VWS V12.07,2013-01-12 20:14:00,
2013-01-12 14:15:00,21.9,15.5,29.74,SW,223,5.0,14.0,76,0.00,,OVC018,0.02,VWS V12.07,2013-01-12 20:15:00,
2013-01-12 14:16:00,21.8,15.4,29.74,SW,223,5.0,14.0,76,0.00,,OVC018,0.02,VWS V12.07,2013-01-12 20:16:00,
2013-01-12 14:19:00,21.8,15.4,29.74,SW,219,5.0,10.0,76,0.00,,OVC018,0.02,VWS V12.07,2013-01-12 20:19:00,
2013-01-12 14:20:00,21.8,15.4,29.74,SSW,204,5.0,10.0,76,0.00,,OVC018,0.02,VWS V12.07,2013-01-12 20:20:00,
2013-01-12 14:21:00,21.8,15.4,29.74,SW,217,4.0,10.0,76,0.00,,OVC018,0.02,VWS V12.07,2013-01-12 20:21:00,
2013-01-12 14:24:00,21.8,15.4,29.74,SW,235,5.0,11.0,76,0.00,,OVC018,0.02,VWS V12.07,2013-01-12 20:24:00,
2013-01-12 14:25:00,21.8,15.4,29.74,SSE,167,2.0,11.0,76,0.00,,OVC018,0.02,VWS V12.07,2013-01-12 20:25:00,
2013-01-12 14:26:00,21.6,14.9,29.74,SSW,202,5.0,11.0,75,0.00,,OVC018,0.02,VWS V12.07,2013-01-12 20:26:00,
2013-01-12 14:29:00,21.6,15.2,29.74,WSW,242,6.0,7.0,76,0.00,,OVC018,0.02,VWS V12.07,2013-01-12 20:29:00,
2013-01-12 14:30:00,21.6,15.2,29.74,SW,215,7.0,7.0,76,0.00,,OVC018,0.02,VWS V12.07,2013-01-12 20:30:00,
2013-01-12 14:31:00,21.4,14.7,29.74,SW,233,7.0,10.0,75,0.00,,OVC018,0.02,VWS V12.07,2013-01-12 20:31:00,
2013-01-12 14:34:00,21.3,14.6,29.74,SW,224,2.0,10.0,75,0.00,,OVC018,0.02,VWS V12.07,2013-01-12 20:34:00,
2013-01-12 14:35:00,21.3,14.6,29.74,SW,224,3.0,10.0,75,0.00,,OVC018,0.02,VWS V12.07,2013-01-12 20:35:00,
2013-01-12 14:36:00,21.4,15.0,29.74,SSW,194,4.0,10.0,76,0.00,,OVC018,0.02,VWS V12.07,2013-01-12 20:36:00,
2013-01-12 14:39:00,21.3,14.6,29.74,SSW,208,2.0,11.0,75,0.00,,OVC018,0.02,VWS V12.07,2013-01-12 20:39:00,
2013-01-12 14:40:00,21.3,14.6,29.74,WSW,245,4.0,11.0,75,0.00,,OVC018,0.02,VWS V12.07,2013-01-12 20:40:00,
2013-01-12 14:41:00,21.1,14.4,29.74,WSW,245,6.0,11.0,75,0.00,,OVC018,0.02,VWS V12.07,2013-01-12 20:41:00,
2013-01-12 14:45:00,21.0,14.3,29.75,SW,236,4.0,11.0,75,0.00,,OVC018,0.02,VWS V12.07,2013-01-12 20:45:00,
2013-01-12 14:46:00,21.0,14.3,29.75,SW,217,2.0,11.0,75,0.00,,OVC018,0.02,VWS V12.07,2013-01-12 20:46:00,
2013-01-12 14:50:00,20.8,14.1,29.75,SSW,196,4.0,9.0,75,0.00,,OVC020,0.02,VWS V12.07,2013-01-12 20:50:00,
2013-01-12 14:51:00,20.8,14.1,29.75,SW,227,3.0,9.0,75,0.00,,OVC020,0.02,VWS V12.07,2013-01-12 20:51:00,
2013-01-12 14:52:00,20.8,14.1,29.75,SSW,205,4.0,9.0,75,0.00,,OVC020,0.02,VWS V12.07,2013-01-12 20:52:00,
2013-01-12 14:55:00,21.0,14.6,29.75,SW,229,4.0,9.0,76,0.00,,OVC020,0.02,VWS V12.07,2013-01-12 20:55:00,
2013-01-12 14:56:00,20.8,14.4,29.75,WSW,243,2.0,9.0,76,0.00,,OVC020,0.02,VWS V12.07,2013-01-12 20:56:00,
2013-01-12 14:57:00,20.8,14.4,29.75,WSW,239,5.0,9.0,76,0.00,,OVC020,0.02,VWS V12.07,2013-01-12 20:57:00,
2013-01-12 15:00:00,20.8,14.4,29.75,SW,229,6.0,9.0,76,0.00,,OVC020,0.02,VWS V12.07,2013-01-12 21:00:00,
2013-01-12 15:01:00,20.8,14.4,29.75,SW,216,3.0,9.0,76,0.00,,OVC020,0.02,VWS V12.07,2013-01-12 21:01:00,
2013-01-12 15:02:00,20.8,14.4,29.75,SW,225,4.0,9.0,76,0.00,,OVC020,0.02,VWS V12.07,2013-01-12 21:02:00,
2013-01-12 15:05:00,20.6,14.2,29.75,SW,219,4.0,9.0,76,0.00,,OVC020,0.02,VWS V12.07,2013-01-12 21:05:00,
2013-01-12 15:06:00,20.6,14.2,29.75,SW,234,4.0,9.0,76,0.00,,OVC020,0.02,VWS V12.07,2013-01-12 21:06:00,
2013-01-12 15:07:00,20.6,14.2,29.75,SSW,196,4.0,9.0,76,0.00,,OVC020,0.02,VWS V12.07,2013-01-12 21:07:00,
2013-01-12 15:11:00,20.6,14.2,29.75,SSW,207,4.0,6.0,76,0.00,,OVC020,0.02,VWS V12.07,2013-01-12 21:11:00,
2013-01-12 15:13:00,20.6,14.6,29.75,WSW,237,4.0,6.0,77,0.00,,OVC020,0.02,VWS V12.07,2013-01-12 21:13:00,
2013-01-12 15:16:00,20.5,14.1,29.76,SW,236,3.0,6.0,76,0.00,,OVC020,0.02,VWS V12.07,2013-01-12 21:16:00,
2013-01-12 15:18:00,20.5,14.1,29.76,WSW,237,4.0,7.0,76,0.00,,OVC020,0.02,VWS V12.07,2013-01-12 21:18:00,
2013-01-12 15:21:00,20.3,14.0,29.76,SW,224,2.0,7.0,76,0.00,,OVC020,0.02,VWS V12.07,2013-01-12 21:21:00,
2013-01-12 15:22:00,20.3,14.0,29.76,SW,227,4.0,7.0,76,0.00,,OVC020,0.02,VWS V12.07,2013-01-12 21:22:00,
2013-01-12 15:23:00,20.2,13.9,29.76,SW,233,3.0,7.0,76,0.00,,OVC020,0.02,VWS V12.07,2013-01-12 21:23:00,
2013-01-12 15:25:00,20.2,13.9,29.76,SW,224,3.0,7.0,76,0.00,,OVC020,0.02,VWS V12.07,2013-01-12 21:25:00,
2013-01-12 15:26:00,20.2,13.9,29.76,SW,224,5.0,7.0,76,0.00,,OVC020,0.02,VWS V12.07,2013-01-12 21:26:00,
2013-01-12 15:27:00,20.2,13.9,29.76,South,191,3.0,7.0,76,0.00,,OVC020,0.02,VWS V12.07,2013-01-12 21:27:00,
2013-01-12 15:28:00,20.2,13.9,29.76,SW,224,0.0,5.0,76,0.00,,OVC020,0.02,VWS V12.07,2013-01-12 21:28:00,
2013-01-12 15:30:00,20.2,14.2,29.78,SSW,213,2.0,7.0,77,0.00,,OVC020,0.02,VWS V12.07,2013-01-12 21:30:00,
2013-01-12 15:31:00,20.2,14.2,29.78,SW,233,3.0,7.0,77,0.00,,OVC020,0.02,VWS V12.07,2013-01-12 21:31:00,
2013-01-12 15:32:00,20.2,14.2,29.78,SSW,203,2.0,7.0,77,0.00,,OVC020,0.02,VWS V12.07,2013-01-12 21:32:00,
2013-01-12 15:33:00,20.2,14.2,29.78,SSW,212,4.0,7.0,77,0.00,,OVC020,0.02,VWS V12.07,2013-01-12 21:33:00,
2013-01-12 15:35:00,20.0,13.7,29.78,SSW,199,3.0,7.0,76,0.00,,OVC020,0.02,VWS V12.07,2013-01-12 21:35:00,
2013-01-12 15:36:00,20.0,13.7,29.78,SW,231,3.0,7.0,76,0.00,,OVC020,0.02,VWS V12.07,2013-01-12 21:36:00,
2013-01-12 15:37:00,19.9,13.6,29.78,SW,214,2.0,7.0,76,0.00,,OVC020,0.02,VWS V12.07,2013-01-12 21:37:00,
2013-01-12 15:38:00,19.9,13.6,29.78,SW,235,2.0,5.0,76,0.00,,OVC020,0.02,VWS V12.07,2013-01-12 21:38:00,
2013-01-12 15:40:00,19.9,13.6,29.78,WSW,248,2.0,6.0,76,0.00,,OVC020,0.02,VWS V12.07,2013-01-12 21:40:00,
2013-01-12 15:42:00,19.9,13.6,29.78,SW,220,3.0,6.0,76,0.00,,OVC020,0.02,VWS V12.07,2013-01-12 21:42:00,
2013-01-12 15:43:00,19.7,13.4,29.78,SSW,207,3.0,6.0,76,0.00,,OVC020,0.02,VWS V12.07,2013-01-12 21:43:00,
2013-01-12 15:45:00,19.7,13.4,29.78,SW,229,2.0,6.0,76,0.00,,OVC020,0.02,VWS V12.07,2013-01-12 21:45:00,
2013-01-12 15:47:00,19.7,13.4,29.78,SSW,195,6.0,6.0,76,0.00,,OVC020,0.02,VWS V12.07,2013-01-12 21:47:00,
2013-01-12 15:49:00,19.5,12.9,29.78,SW,220,3.0,6.0,75,0.00,,OVC020,0.02,VWS V12.07,2013-01-12 21:49:00,
2013-01-12 15:50:00,19.4,12.8,29.78,SW,236,3.0,7.0,75,0.00,,OVC020,0.02,VWS V12.07,2013-01-12 21:50:00,
2013-01-12 15:52:00,19.2,12.6,29.78,SSW,213,4.0,7.0,75,0.00,,OVC020,0.02,VWS V12.07,2013-01-12 21:52:00,
2013-01-12 15:53:00,19.2,12.6,29.78,SW,231,3.0,7.0,75,0.00,,OVC020,0.02,VWS V12.07,2013-01-12 21:53:00,
2013-01-12 15:54:00,19.2,12.6,29.78,South,186,3.0,7.0,75,0.00,,OVC020,0.02,VWS V12.07,2013-01-12 21:54:00,
2013-01-12 15:56:00,19.4,13.1,29.78,SW,226,6.0,9.0,76,0.00,,OVC020,0.02,VWS V12.07,2013-01-12 21:56:00,
2013-01-12 15:57:00,19.2,12.9,29.78,SW,228,3.0,9.0,76,0.00,,OVC020,0.02,VWS V12.07,2013-01-12 21:57:00,
2013-01-12 15:58:00,19.2,12.6,29.78,SW,231,4.0,9.0,75,0.00,,OVC020,0.02,VWS V12.07,2013-01-12 21:58:00,
2013-01-12 15:59:00,19.2,12.6,29.78,SW,215,6.0,6.0,75,0.00,,OVC020,0.02,VWS V12.07,2013-01-12 21:59:00,
2013-01-12 16:01:00,19.1,12.5,29.78,SW,215,1.0,10.0,75,0.00,,OVC020,0.02,VWS V12.07,2013-01-12 22:01:00,
2013-01-12 16:02:00,19.1,12.5,29.78,SW,219,6.0,10.0,75,0.00,,OVC020,0.02,VWS V12.07,2013-01-12 22:02:00,
2013-01-12 16:03:00,19.1,12.5,29.78,SW,229,2.0,10.0,75,0.00,,OVC020,0.02,VWS V12.07,2013-01-12 22:03:00,
2013-01-12 16:05:00,18.9,12.3,29.78,WSW,243,5.0,17.0,75,0.00,,OVC020,0.02,VWS V12.07,2013-01-12 22:05:00,
2013-01-12 16:06:00,18.9,12.3,29.78,SW,235,3.0,17.0,75,0.00,,OVC020,0.02,VWS V12.07,2013-01-12 22:06:00,
2013-01-12 16:08:00,18.9,12.3,29.78,SW,224,6.0,17.0,75,0.00,,OVC020,0.02,VWS V12.07,2013-01-12 22:08:00,
2013-01-12 16:10:00,18.9,12.3,29.78,SSW,207,3.0,10.0,75,0.00,,OVC020,0.02,VWS V12.07,2013-01-12 22:10:00,
2013-01-12 16:11:00,19.1,12.8,29.78,SW,232,2.0,10.0,76,0.00,,OVC020,0.02,VWS V12.07,2013-01-12 22:11:00,
2013-01-12 16:13:00,19.1,12.8,29.78,SSE,166,5.0,10.0,76,0.00,,OVC020,0.02,VWS V12.07,2013-01-12 22:13:00,
2013-01-12 16:15:00,18.9,12.6,29.78,WSW,251,1.0,10.0,76,0.00,,OVC020,0.02,VWS V12.07,2013-01-12 22:15:00,
2013-01-12 16:16:00,18.9,12.6,29.80,SSW,200,1.0,10.0,76,0.00,,OVC020,0.02,VWS V12.07,2013-01-12 22:16:00,
2013-01-12 16:18:00,18.9,12.3,29.80,SW,229,3.0,10.0,75,0.00,,OVC020,0.02,VWS V12.07,2013-01-12 22:18:00,
2013-01-12 16:19:00,18.8,12.2,29.80,WSW,252,2.0,6.0,75,0.00,,OVC020,0.02,VWS V12.07,2013-01-12 22:19:00,
2013-01-12 16:20:00,18.8,12.2,29.80,WSW,252,0.0,6.0,75,0.00,,OVC020,0.02,VWS V12.07,2013-01-12 22:20:00,
2013-01-12 16:22:00,18.8,12.2,29.80,SW,230,3.0,6.0,75,0.00,,OVC020,0.02,VWS V12.07,2013-01-12 22:22:00,
2013-01-12 16:23:00,18.8,12.2,29.80,West,278,1.0,6.0,75,0.00,,OVC020,0.02,VWS V12.07,2013-01-12 22:23:00,
2013-01-12 16:24:00,18.8,12.2,29.80,SW,236,3.0,6.0,75,0.00,,OVC020,0.02,VWS V12.07,2013-01-12 22:24:00,
2013-01-12 16:26:00,18.6,11.7,29.80,WSW,240,2.0,6.0,74,0.00,,OVC020,0.02,VWS V12.07,2013-01-12 22:26:00,
2013-01-12 16:27:00,18.6,11.7,29.80,WSW,248,1.0,6.0,74,0.00,,OVC020,0.02,VWS V12.07,2013-01-12 22:27:00,
2013-01-12 16:28:00,18.6,11.7,29.80,WSW,249,2.0,3.0,74,0.00,,OVC020,0.02,VWS V12.07,2013-01-12 22:28:00,
2013-01-12 16:30:00,18.6,11.7,29.80,WSW,241,0.0,3.0,74,0.00,,OVC020,0.02,VWS V12.07,2013-01-12 22:30:00,
2013-01-12 16:31:00,18.4,11.8,29.78,SW,228,2.0,4.0,75,0.00,,OVC020,0.02,VWS V12.07,2013-01-12 22:31:00,
2013-01-12 16:32:00,18.4,11.8,29.78,WSW,241,2.0,4.0,75,0.00,,OVC020,0.02,VWS V12.07,2013-01-12 22:32:00,
2013-01-12 16:33:00,18.4,11.8,29.78,West,267,1.0,4.0,75,0.00,,OVC020,0.02,VWS V12.07,2013-01-12 22:33:00,
2013-01-12 16:35:00,18.4,11.8,29.78,SW,230,2.0,4.0,75,0.00,,OVC020,0.02,VWS V12.07,2013-01-12 22:35:00,
2013-01-12 16:36:00,18.4,11.8,29.78,WSW,246,3.0,4.0,75,0.00,,OVC020,0.02,VWS V12.07,2013-01-12 22:36:00,
2013-01-12 16:38:00,18.4,12.1,29.78,SSW,194,6.0,6.0,76,0.00,,OVC020,0.02,VWS V12.07,2013-01-12 22:38:00,
2013-01-12 16:40:00,18.3,11.7,29.78,WSW,244,3.0,6.0,75,0.00,,OVC020,0.02,VWS V12.07,2013-01-12 22:40:00,
2013-01-12 16:41:00,18.3,11.7,29.78,West,259,0.0,6.0,75,0.00,,OVC020,0.02,VWS V12.07,2013-01-12 22:41:00,
2013-01-12 16:43:00,18.1,11.5,29.78,WNW,298,2.0,6.0,75,0.00,,OVC020,0.02,VWS V12.07,2013-01-12 22:43:00,
2013-01-12 16:44:00,18.1,11.5,29.78,West,260,0.0,6.0,75,0.00,,OVC020,0.02,VWS V12.07,2013-01-12 22:44:00,
2013-01-12 16:45:00,18.1,11.5,29.78,West,260,0.0,6.0,75,0.00,,OVC020,0.02,VWS V12.07,2013-01-12 22:45:00,
2013-01-12 16:46:00,18.1,11.8,29.78,SSW,199,3.0,6.0,76,0.00,,OVC020,0.02,VWS V12.07,2013-01-12 22:46:00,
2013-01-12 16:49:00,18.1,11.5,29.78,SW,232,0.0,4.0,75,0.00,,OVC018,0.02,VWS V12.07,2013-01-12 22:49:00,
2013-01-12 16:50:00,18.1,11.8,29.78,SSW,205,1.0,4.0,76,0.00,,OVC018,0.02,VWS V12.07,2013-01-12 22:50:00,
2013-01-12 16:52:00,18.1,11.8,29.78,SSW,205,0.0,4.0,76,0.00,,OVC018,0.02,VWS V12.07,2013-01-12 22:52:00,
2013-01-12 16:54:00,18.1,11.8,29.78,SW,236,2.0,4.0,76,0.00,,OVC018,0.02,VWS V12.07,2013-01-12 22:54:00,
2013-01-12 16:56:00,18.1,11.8,29.78,WSW,254,2.0,4.0,76,0.00,,OVC018,0.02,VWS V12.07,2013-01-12 22:56:00,
2013-01-12 16:57:00,18.1,11.5,29.78,NNW,328,0.0,4.0,75,0.00,,OVC018,0.02,VWS V12.07,2013-01-12 22:57:00,
2013-01-12 16:59:00,18.0,11.4,29.78,SW,236,1.0,3.0,75,0.00,,OVC018,0.02,VWS V12.07,2013-01-12 22:59:00,
2013-01-12 17:01:00,17.7,10.8,29.81,SW,233,0.0,6.0,74,0.00,,OVC018,0.02,VWS V12.07,2013-01-12 23:01:00,
2013-01-12 17:02:00,17.7,10.8,29.81,WSW,238,0.0,6.0,74,0.00,,OVC018,0.02,VWS V12.07,2013-01-12 23:02:00,
2013-01-12 17:04:00,17.5,10.6,29.81,WSW,249,0.0,6.0,74,0.00,,OVC018,0.02,VWS V12.07,2013-01-12 23:04:00,
2013-01-12 17:05:00,17.3,10.4,29.81,WSW,249,0.0,6.0,74,0.00,,OVC018,0.02,VWS V12.07,2013-01-12 23:05:00,
2013-01-12 17:06:00,17.3,10.4,29.81,WSW,241,3.0,6.0,74,0.00,,OVC018,0.02,VWS V12.07,2013-01-12 23:06:00,
2013-01-12 17:07:00,17.3,10.4,29.81,WSW,242,1.0,6.0,74,0.00,,OVC018,0.02,VWS V12.07,2013-01-12 23:07:00,
2013-01-12 17:09:00,17.2,10.4,29.81,SW,234,1.0,3.0,74,0.00,,OVC018,0.02,VWS V12.07,2013-01-12 23:09:00,
2013-01-12 17:10:00,17.2,10.4,29.81,West,274,1.0,3.0,74,0.00,,OVC018,0.02,VWS V12.07,2013-01-12 23:10:00,
2013-01-12 17:12:00,17.0,10.2,29.81,West,264,1.0,5.0,74,0.00,,OVC018,0.02,VWS V12.07,2013-01-12 23:12:00,
2013-01-12 17:14:00,17.0,10.2,29.81,West,262,2.0,5.0,74,0.00,,OVC018,0.02,VWS V12.07,2013-01-12 23:14:00,
2013-01-12 17:15:00,17.0,10.2,29.82,SW,227,2.0,5.0,74,0.00,,OVC018,0.02,VWS V12.07,2013-01-12 23:15:00,
2013-01-12 17:17:00,16.9,10.1,29.82,SW,231,1.0,5.0,74,0.00,,OVC018,0.02,VWS V12.07,2013-01-12 23:17:00,
2013-01-12 17:19:00,16.7,9.9,29.82,WSW,239,2.0,3.0,74,0.00,,OVC018,0.02,VWS V12.07,2013-01-12 23:19:00,
2013-01-12 17:20:00,16.7,9.9,29.82,SW,219,1.0,4.0,74,0.00,,OVC018,0.02,VWS V12.07,2013-01-12 23:20:00,
2013-01-12 17:22:00,16.7,9.9,29.82,West,262,0.0,0.0,74,0.00,,OVC018,0.02,VWS V12.07,2013-01-12 23:22:00,
2013-01-12 17:24:00,16.7,9.9,29.82,SSW,212,3.0,4.0,74,0.00,,OVC018,0.02,VWS V12.07,2013-01-12 23:24:00,
2013-01-12 17:25:00,16.7,9.9,29.82,SW,226,2.0,6.0,74,0.00,,OVC018,0.02,VWS V12.07,2013-01-12 23:25:00,
2013-01-12 17:27:00,16.7,9.9,29.82,SW,224,2.0,6.0,74,0.00,,OVC018,0.02,VWS V12.07,2013-01-12 23:27:00,
2013-01-12 17:29:00,16.5,9.7,29.82,SSW,206,2.0,5.0,74,0.00,,OVC018,0.02,VWS V12.07,2013-01-12 23:29:00,
2013-01-12 17:31:00,16.5,10.0,29.84,SSW,193,3.0,5.0,75,0.00,,OVC018,0.02,VWS V12.07,2013-01-12 23:31:00,
2013-01-12 17:32:00,16.7,10.2,29.84,SSW,210,0.0,5.0,75,0.00,,OVC018,0.02,VWS V12.07,2013-01-12 23:32:00,
2013-01-12 17:33:00,16.7,10.2,29.84,WSW,250,3.0,5.0,75,0.00,,OVC018,0.02,VWS V12.07,2013-01-12 23:33:00,
2013-01-12 17:34:00,16.7,10.2,29.84,SSW,196,3.0,5.0,75,0.00,,,0.02,VWS V12.07,2013-01-12 23:34:00,
2013-01-12 17:36:00,16.7,10.2,29.84,SSW,207,1.0,5.0,75,0.00,,,0.02,VWS V12.07,2013-01-12 23:36:00,
2013-01-12 17:38:00,16.7,10.2,29.84,SW,226,3.0,5.0,75,0.00,,,0.02,VWS V12.07,2013-01-12 23:38:00,
2013-01-12 17:39:00,16.7,10.2,29.84,SW,228,4.0,5.0,75,0.00,,,0.02,VWS V12.07,2013-01-12 23:39:00,
2013-01-12 17:41:00,16.7,10.5,29.84,SW,224,2.0,5.0,76,0.00,,,0.02,VWS V12.07,2013-01-12 23:41:00,
2013-01-12 17:43:00,16.5,10.0,29.84,SSW,199,3.0,5.0,75,0.00,,,0.02,VWS V12.07,2013-01-12 23:43:00,
2013-01-12 17:45:00,16.7,10.5,29.84,SW,233,1.0,5.0,76,0.00,,,0.02,VWS V12.07,2013-01-12 23:45:00,
2013-01-12 17:46:00,16.7,10.5,29.85,WSW,242,3.0,5.0,76,0.00,,,0.02,VWS V12.07,2013-01-12 23:46:00,
2013-01-12 17:48:00,16.5,10.0,29.85,SSW,200,2.0,10.0,75,0.00,,,0.02,VWS V12.07,2013-01-12 23:48:00,
2013-01-12 17:49:00,16.4,11.0,29.85,SW,224,2.0,10.0,79,0.00,,,0.02,VWS V12.07,2013-01-12 23:49:00,
2013-01-12 17:50:00,16.4,9.9,29.85,SW,218,2.0,10.0,75,0.00,,,0.02,VWS V12.07,2013-01-12 23:50:00,
2013-01-12 17:52:00,16.4,10.2,29.85,SSW,199,3.0,10.0,76,0.00,,,0.02,VWS V12.07,2013-01-12 23:52:00,
2013-01-12 17:53:00,16.4,10.2,29.85,SSW,200,5.0,10.0,76,0.00,,,0.02,VWS V12.07,2013-01-12 23:53:00,
2013-01-12 17:54:00,16.4,10.2,29.85,SW,216,2.0,10.0,76,0.00,,,0.02,VWS V12.07,2013-01-12 23:54:00,
2013-01-12 17:55:00,16.4,10.2,29.85,SSW,202,2.0,10.0,76,0.00,,,0.02,VWS V12.07,2013-01-12 23:55:00,
2013-01-12 17:57:00,16.2,10.0,29.85,SW,225,1.0,10.0,76,0.00,,,0.02,VWS V12.07,2013-01-12 23:57:00,
2013-01-12 17:58:00,16.2,10.0,29.85,WSW,242,3.0,10.0,76,0.00,,,0.02,VWS V12.07,2013-01-12 23:58:00,
2013-01-12 18:00:00,16.2,10.0,29.85,SW,229,1.0,7.0,76,0.00,,,0.02,VWS V12.07,2013-01-13 00:00:00,
2013-01-12 18:01:00,16.2,10.0,29.86,SSW,211,4.0,7.0,76,0.00,,,0.02,VWS V12.07,2013-01-13 00:01:00,
2013-01-12 18:02:00,16.1,9.9,29.86,SW,221,4.0,7.0,76,0.00,,,0.02,VWS V12.07,2013-01-13 00:02:00,
2013-01-12 18:03:00,16.1,9.9,29.86,SSW,211,6.0,7.0,76,0.00,,,0.02,VWS V12.07,2013-01-13 00:03:00,
2013-01-12 18:05:00,16.1,9.9,29.86,South,182,3.0,7.0,76,0.00,,,0.02,VWS V12.07,2013-01-13 00:05:00,
2013-01-12 18:06:00,16.1,10.2,29.86,SW,223,1.0,7.0,77,0.00,,,0.02,VWS V12.07,2013-01-13 00:06:00,
2013-01-12 18:07:00,16.1,10.2,29.86,SSW,212,2.0,7.0,77,0.00,,,0.02,VWS V12.07,2013-01-13 00:07:00,
2013-01-12 18:08:00,16.1,10.5,29.86,SW,232,1.0,5.0,78,0.00,,,0.02,VWS V12.07,2013-01-13 00:08:00,
2013-01-12 18:10:00,16.1,10.5,29.86,WSW,238,5.0,5.0,78,0.00,,,0.02,VWS V12.07,2013-01-13 00:10:00,
2013-01-12 18:11:00,16.1,10.5,29.86,SW,221,1.0,5.0,78,0.00,,,0.02,VWS V12.07,2013-01-13 00:11:00,
2013-01-12 18:12:00,16.1,10.2,29.86,SW,216,2.0,5.0,77,0.00,,,0.02,VWS V12.07,2013-01-13 00:12:00,
2013-01-12 18:13:00,16.1,10.2,29.86,SW,214,5.0,5.0,77,0.00,,,0.02,VWS V12.07,2013-01-13 00:13:00,
2013-01-12 18:15:00,15.9,9.7,29.87,SW,234,3.0,5.0,76,0.00,,,0.02,VWS V12.07,2013-01-13 00:15:00,
2013-01-12 18:16:00,15.9,9.7,29.87,SW,219,0.0,5.0,76,0.00,,,0.02,VWS V12.07,2013-01-13 00:16:00,
2013-01-12 18:17:00,15.9,9.7,29.87,SSW,204,2.0,5.0,76,0.00,,,0.02,VWS V12.07,2013-01-13 00:17:00,
2013-01-12 18:18:00,15.9,9.7,29.87,WSW,246,1.0,4.0,76,0.00,,,0.02,VWS V12.07,2013-01-13 00:18:00,
2013-01-12 18:21:00,15.9,9.7,29.87,SSW,212,1.0,4.0,76,0.00,,,0.02,VWS V12.07,2013-01-13 00:21:00,
2013-01-12 18:22:00,15.9,9.7,29.87,SW,236,1.0,4.0,76,0.00,,,0.02,VWS V12.07,2013-01-13 00:22:00,
2013-01-12 18:23:00,15.9,9.7,29.87,SSW,200,2.0,4.0,76,0.00,,,0.02,VWS V12.07,2013-01-13 00:23:00,
2013-01-12 18:26:00,15.7,9.5,29.87,SW,233,1.0,4.0,76,0.00,,,0.02,VWS V12.07,2013-01-13 00:26:00,
2013-01-12 18:28:00,15.7,9.5,29.87,SW,220,3.0,5.0,76,0.00,,,0.02,VWS V12.07,2013-01-13 00:28:00,
2013-01-12 18:29:00,15.7,9.5,29.87,SW,220,1.0,5.0,76,0.00,,,0.02,VWS V12.07,2013-01-13 00:29:00,
2013-01-12 18:31:00,15.7,9.8,29.86,SSW,210,4.0,5.0,77,0.00,,,0.02,VWS V12.07,2013-01-13 00:31:00,
2013-01-12 18:33:00,15.6,9.4,29.86,SW,224,0.0,10.0,76,0.00,,,0.02,VWS V12.07,2013-01-13 00:33:00,
2013-01-12 18:34:00,15.6,9.4,29.86,SW,224,0.0,10.0,76,0.00,,,0.02,VWS V12.07,2013-01-13 00:34:00,
2013-01-12 18:36:00,15.6,9.7,29.86,WSW,242,1.0,10.0,77,0.00,,,0.02,VWS V12.07,2013-01-13 00:36:00,
2013-01-12 18:38:00,15.6,9.4,29.86,WSW,242,0.0,10.0,76,0.00,,,0.02,VWS V12.07,2013-01-13 00:38:00,
2013-01-12 18:39:00,15.6,9.7,29.86,WSW,242,0.0,3.0,77,0.00,,,0.02,VWS V12.07,2013-01-13 00:39:00,
2013-01-12 18:42:00,15.4,9.2,29.86,SW,219,3.0,5.0,76,0.00,,,0.02,VWS V12.07,2013-01-13 00:42:00,
2013-01-12 18:43:00,15.4,9.2,29.86,SSW,200,1.0,5.0,76,0.00,,,0.02,VWS V12.07,2013-01-13 00:43:00,
2013-01-12 18:44:00,15.4,9.2,29.86,SW,231,3.0,5.0,76,0.00,,,0.02,VWS V12.07,2013-01-13 00:44:00,
2013-01-12 18:47:00,15.2,9.3,29.88,SSW,212,0.0,5.0,77,0.00,,,0.02,VWS V12.07,2013-01-13 00:47:00,
2013-01-12 18:48:00,15.2,9.3,29.88,SW,231,3.0,3.0,77,0.00,,,0.02,VWS V12.07,2013-01-13 00:48:00,
2013-01-12 18:49:00,15.2,9.6,29.88,SW,224,5.0,5.0,78,0.00,,,0.02,VWS V12.07,2013-01-13 00:49:00,
2013-01-12 18:52:00,15.2,9.6,29.88,SW,234,1.0,5.0,78,0.00,,,0.02,VWS V12.07,2013-01-13 00:52:00,
2013-01-12 18:53:00,15.2,9.9,29.88,SW,234,0.0,5.0,79,0.00,,,0.02,VWS V12.07,2013-01-13 00:53:00,
2013-01-12 18:54:00,15.1,9.8,29.88,SW,234,0.0,5.0,79,0.00,,,0.02,VWS V12.07,2013-01-13 00:54:00,
2013-01-12 18:57:00,15.1,9.8,29.88,SW,233,2.0,5.0,79,0.00,,,0.02,VWS V12.07,2013-01-13 00:57:00,
2013-01-12 18:59:00,14.9,9.9,29.88,SW,234,0.0,3.0,80,0.00,,,0.02,VWS V12.07,2013-01-13 00:59:00,
2013-01-12 19:02:00,14.9,9.6,29.87,SSW,212,1.0,3.0,79,0.00,,,0.02,VWS V12.07,2013-01-13 01:02:00,
2013-01-12 19:04:00,14.8,9.5,29.87,SW,229,0.0,3.0,79,0.00,,,0.02,VWS V12.07,2013-01-13 01:04:00,
2013-01-12 19:07:00,14.8,9.5,29.87,SSW,210,2.0,3.0,79,0.00,,,0.02,VWS V12.07,2013-01-13 01:07:00,
2013-01-12 19:10:00,14.8,9.2,29.87,WSW,257,0.0,3.0,78,0.00,,,0.02,VWS V12.07,2013-01-13 01:10:00,
2013-01-12 19:12:00,14.8,9.2,29.87,WSW,248,1.0,3.0,78,0.00,,,0.02,VWS V12.07,2013-01-13 01:12:00,
2013-01-12 19:15:00,14.9,9.3,29.88,SW,214,1.0,3.0,78,0.00,,,0.02,VWS V12.07,2013-01-13 01:15:00,
2013-01-12 19:17:00,14.9,9.0,29.88,WSW,250,1.0,4.0,77,0.00,,,0.02,VWS V12.07,2013-01-13 01:17:00,
2013-01-12 19:18:00,14.9,9.0,29.88,WSW,243,1.0,2.0,77,0.00,,,0.02,VWS V12.07,2013-01-13 01:18:00,
2013-01-12 19:20:00,14.9,8.7,29.88,SW,229,0.0,3.0,76,0.00,,,0.02,VWS V12.07,2013-01-13 01:20:00,
2013-01-12 19:22:00,14.9,8.7,29.88,SSW,204,0.0,4.0,76,0.00,,,0.02,VWS V12.07,2013-01-13 01:22:00,
2013-01-12 19:23:00,14.9,8.7,29.88,SSW,204,1.0,4.0,76,0.00,,,0.02,VWS V12.07,2013-01-13 01:23:00,
2013-01-12 19:25:00,14.9,8.7,29.88,SSW,204,0.0,4.0,76,0.00,,,0.02,VWS V12.07,2013-01-13 01:25:00,
2013-01-12 19:26:00,14.9,8.7,29.88,SSW,204,0.0,4.0,76,0.00,,,0.02,VWS V12.07,2013-01-13 01:26:00,
2013-01-12 19:27:00,14.9,8.7,29.88,SW,226,0.0,4.0,76,0.00,,,0.02,VWS V12.07,2013-01-13 01:27:00,
2013-01-12 19:28:00,14.9,8.7,29.88,SW,225,1.0,2.0,76,0.00,,,0.02,VWS V12.07,2013-01-13 01:28:00,
2013-01-12 19:30:00,14.9,8.7,29.88,WSW,241,0.0,2.0,76,0.00,,,0.02,VWS V12.07,2013-01-13 01:30:00,
2013-01-12 19:31:00,14.9,8.7,29.88,WSW,241,0.0,2.0,76,0.00,,,0.02,VWS V12.07,2013-01-13 01:31:00,
2013-01-12 19:32:00,14.9,8.7,29.88,WSW,241,0.0,2.0,76,0.00,,,0.02,VWS V12.07,2013-01-13 01:32:00,
2013-01-12 19:34:00,14.9,8.7,29.88,WSW,244,0.0,2.0,76,0.00,,OVC018,0.02,VWS V12.07,2013-01-13 01:34:00,
2013-01-12 19:35:00,14.9,8.7,29.88,WSW,244,0.0,2.0,76,0.00,,OVC018,0.02,VWS V12.07,2013-01-13 01:35:00,
2013-01-12 19:36:00,14.9,8.7,29.88,SW,226,2.0,4.0,76,0.00,,OVC018,0.02,VWS V12.07,2013-01-13 01:36:00,
2013-01-12 19:38:00,14.9,8.7,29.88,NW,319,2.0,4.0,76,0.00,,OVC018,0.02,VWS V12.07,2013-01-13 01:38:00,
2013-01-12 19:39:00,14.9,8.7,29.88,NW,307,0.0,4.0,76,0.00,,OVC018,0.02,VWS V12.07,2013-01-13 01:39:00,
2013-01-12 19:41:00,14.9,8.7,29.88,NW,304,0.0,4.0,76,0.00,,OVC018,0.02,VWS V12.07,2013-01-13 01:41:00,
2013-01-12 19:43:00,14.9,8.7,29.88,South,191,1.0,4.0,76,0.00,,OVC018,0.02,VWS V12.07,2013-01-13 01:43:00,
2013-01-12 19:44:00,14.9,8.7,29.88,South,191,1.0,4.0,76,0.00,,OVC018,0.02,VWS V12.07,2013-01-13 01:44:00,
2013-01-12 19:46:00,14.8,8.3,29.87,SSW,198,3.0,4.0,75,0.00,,OVC018,0.02,VWS V12.07,2013-01-13 01:46:00,
2013-01-12 19:47:00,14.8,8.3,29.87,SSW,197,2.0,4.0,75,0.00,,OVC018,0.02,VWS V12.07,2013-01-13 01:47:00,
2013-01-12 19:48:00,14.8,8.3,29.87,SW,234,2.0,0.0,75,0.00,,,0.02,VWS V12.07,2013-01-13 01:48:00,
2013-01-12 19:50:00,14.8,8.3,29.87,SW,229,2.0,4.0,75,0.00,,,0.02,VWS V12.07,2013-01-13 01:50:00,
2013-01-12 19:52:00,14.6,8.1,29.87,SSW,208,4.0,4.0,75,0.00,,,0.02,VWS V12.07,2013-01-13 01:52:00,
2013-01-12 19:53:00,14.6,8.1,29.87,SW,223,0.0,4.0,75,0.00,,,0.02,VWS V12.07,2013-01-13 01:53:00,
2013-01-12 19:55:00,14.6,8.1,29.87,West,264,0.0,5.0,75,0.00,,,0.02,VWS V12.07,2013-01-13 01:55:00,
2013-01-12 19:57:00,14.6,8.1,29.87,South,174,3.0,5.0,75,0.00,,,0.02,VWS V12.07,2013-01-13 01:57:00,
2013-01-12 19:58:00,14.6,8.4,29.87,SW,219,1.0,3.0,76,0.00,,,0.02,VWS V12.07,2013-01-13 01:58:00,
2013-01-12 20:00:00,14.8,8.6,29.89,SW,219,0.0,3.0,76,0.00,,,0.02,VWS V12.07,2013-01-13 02:00:00,
2013-01-12 20:02:00,14.8,8.6,29.89,SW,229,2.0,5.0,76,0.00,,,0.02,VWS V12.07,2013-01-13 02:02:00,
2013-01-12 20:03:00,14.8,8.6,29.89,SW,214,3.0,5.0,76,0.00,,,0.02,VWS V12.07,2013-01-13 02:03:00,
2013-01-12 20:06:00,14.6,8.4,29.89,SW,222,3.0,5.0,76,0.00,,,0.02,VWS V12.07,2013-01-13 02:06:00,
2013-01-12 20:07:00,14.6,8.1,29.89,SW,222,2.0,5.0,75,0.00,,,0.02,VWS V12.07,2013-01-13 02:07:00,
2013-01-12 20:09:00,14.6,8.1,29.89,SW,221,0.0,3.0,75,0.00,,,0.02,VWS V12.07,2013-01-13 02:09:00,
2013-01-12 20:11:00,14.6,8.1,29.89,SSW,197,1.0,3.0,75,0.00,,,0.02,VWS V12.07,2013-01-13 02:11:00,
2013-01-12 20:12:00,14.6,8.1,29.89,SSW,202,1.0,3.0,75,0.00,,,0.02,VWS V12.07,2013-01-13 02:12:00,
2013-01-12 20:14:00,14.6,8.1,29.89,SSW,208,0.0,3.0,75,0.00,,,0.02,VWS V12.07,2013-01-13 02:14:00,
2013-01-12 20:16:00,14.6,8.1,29.89,SW,214,2.0,3.0,75,0.00,,,0.02,VWS V12.07,2013-01-13 02:16:00,
2013-01-12 20:17:00,14.6,8.1,29.89,WSW,242,1.0,3.0,75,0.00,,,0.02,VWS V12.07,2013-01-13 02:17:00,
2013-01-12 20:19:00,14.6,8.1,29.89,SW,214,3.0,4.0,75,0.00,,,0.02,VWS V12.07,2013-01-13 02:19:00,
2013-01-12 20:22:00,14.6,8.1,29.89,SW,214,0.0,4.0,75,0.00,,,0.02,VWS V12.07,2013-01-13 02:22:00,
2013-01-12 20:24:00,14.6,8.4,29.89,SW,214,0.0,4.0,76,0.00,,,0.02,VWS V12.07,2013-01-13 02:24:00,
2013-01-12 20:27:00,14.6,8.4,29.89,SW,214,0.0,4.0,76,0.00,,,0.02,VWS V12.07,2013-01-13 02:27:00,
2013-01-12 20:29:00,14.6,8.4,29.89,SW,214,0.0,2.0,76,0.00,,,0.02,VWS V12.07,2013-01-13 02:29:00,
2013-01-12 20:32:00,14.6,8.4,29.89,SW,214,1.0,2.0,76,0.00,,,0.02,VWS V12.07,2013-01-13 02:32:00,
2013-01-12 20:33:00,14.6,8.4,29.89,SW,214,1.0,2.0,76,0.00,,,0.02,VWS V12.07,2013-01-13 02:33:00,
2013-01-12 20:34:00,14.6,8.7,29.89,SW,214,0.0,2.0,77,0.00,,,0.02,VWS V12.07,2013-01-13 02:34:00,
2013-01-12 20:37:00,14.4,8.5,29.89,SW,214,1.0,3.0,77,0.00,,,0.02,VWS V12.07,2013-01-13 02:37:00,
2013-01-12 20:38:00,14.4,8.5,29.89,SW,214,1.0,3.0,77,0.00,,,0.02,VWS V12.07,2013-01-13 02:38:00,
2013-01-12 20:40:00,14.4,8.5,29.89,SW,214,0.0,3.0,77,0.00,,,0.02,VWS V12.07,2013-01-13 02:40:00,
2013-01-12 20:42:00,14.4,8.5,29.89,WNW,296,2.0,3.0,77,0.00,,,0.02,VWS V12.07,2013-01-13 02:42:00,
2013-01-12 20:43:00,14.4,8.5,29.89,WNW,296,1.0,3.0,77,0.00,,,0.02,VWS V12.07,2013-01-13 02:43:00,
2013-01-12 20:45:00,14.4,8.5,29.89,SSW,193,0.0,3.0,77,0.00,,,0.02,VWS V12.07,2013-01-13 02:45:00,
2013-01-12 20:48:00,14.4,8.5,29.90,SSW,205,0.0,3.0,77,0.00,,,0.02,VWS V12.07,2013-01-13 02:48:00,
2013-01-12 20:50:00,14.4,8.5,29.90,SSW,205,0.0,2.0,77,0.00,,OVC018,0.02,VWS V12.07,2013-01-13 02:50:00,
2013-01-12 20:53:00,14.4,8.5,29.90,SW,214,1.0,2.0,77,0.00,,OVC018,0.02,VWS V12.07,2013-01-13 02:53:00,
2013-01-12 20:55:00,14.3,8.1,29.90,SW,214,0.0,2.0,76,0.00,,OVC018,0.02,VWS V12.07,2013-01-13 02:55:00,
2013-01-12 20:58:00,14.3,8.1,29.90,SW,214,0.0,2.0,76,0.00,,OVC018,0.02,VWS V12.07,2013-01-13 02:58:00,
2013-01-12 20:59:00,14.3,8.1,29.90,SW,214,0.0,0.0,76,0.00,,OVC018,0.02,VWS V12.07,2013-01-13 02:59:00,
2013-01-12 21:00:00,14.3,8.1,29.92,SW,214,0.0,1.0,76,0.00,,OVC018,0.02,VWS V12.07,2013-01-13 03:00:00,
2013-01-12 21:03:00,14.3,8.1,29.92,SW,214,2.0,2.0,76,0.00,,OVC018,0.02,VWS V12.07,2013-01-13 03:03:00,
2013-01-12 21:04:00,14.3,8.1,29.92,SW,214,0.0,2.0,76,0.00,,OVC018,0.02,VWS V12.07,2013-01-13 03:04:00,
2013-01-12 21:07:00,14.3,7.8,29.92,SW,214,1.0,2.0,75,0.00,,OVC018,0.02,VWS V12.07,2013-01-13 03:07:00,
2013-01-12 21:08:00,14.1,7.7,29.92,SW,214,0.0,2.0,75,0.00,,OVC018,0.02,VWS V12.07,2013-01-13 03:08:00,
2013-01-12 21:09:00,14.1,7.7,29.92,SW,214,0.0,2.0,75,0.00,,OVC018,0.02,VWS V12.07,2013-01-13 03:09:00,
2013-01-12 21:12:00,14.1,7.7,29.92,SW,214,0.0,2.0,75,0.00,,OVC018,0.02,VWS V12.07,2013-01-13 03:12:00,
2013-01-12 21:13:00,14.1,7.9,29.92,SW,214,1.0,2.0,76,0.00,,OVC018,0.02,VWS V12.07,2013-01-13 03:13:00,
2013-01-12 21:14:00,14.1,7.9,29.92,SW,214,1.0,2.0,76,0.00,,OVC018,0.02,VWS V12.07,2013-01-13 03:14:00,
2013-01-12 21:15:00,14.1,7.7,29.92,SW,214,0.0,2.0,75,0.00,,OVC018,0.02,VWS V12.07,2013-01-13 03:15:00,
2013-01-12 21:17:00,14.1,7.7,29.92,West,274,0.0,3.0,75,0.00,,OVC018,0.02,VWS V12.07,2013-01-13 03:17:00,
2013-01-12 21:19:00,14.1,7.7,29.92,West,274,1.0,2.0,75,0.00,,OVC018,0.02,VWS V12.07,2013-01-13 03:19:00,
2013-01-12 21:20:00,14.0,7.6,29.92,SSW,204,0.0,2.0,75,0.00,,OVC018,0.02,VWS V12.07,2013-01-13 03:20:00,
2013-01-12 21:23:00,14.0,7.6,29.92,SSW,207,2.0,2.0,75,0.00,,OVC018,0.02,VWS V12.07,2013-01-13 03:23:00,
2013-01-12 21:24:00,14.0,7.6,29.92,SSW,201,2.0,3.0,75,0.00,,OVC018,0.02,VWS V12.07,2013-01-13 03:24:00,
2013-01-12 21:25:00,14.0,7.6,29.92,SW,220,0.0,3.0,75,0.00,,OVC018,0.02,VWS V12.07,2013-01-13 03:25:00,
2013-01-12 21:28:00,14.0,7.6,29.92,SW,217,0.0,2.0,75,0.00,,OVC018,0.02,VWS V12.07,2013-01-13 03:28:00,
2013-01-12 21:29:00,14.0,7.6,29.92,SW,217,1.0,2.0,75,0.00,,OVC018,0.02,VWS V12.07,2013-01-13 03:29:00,
2013-01-12 21:30:00,14.0,7.8,29.93,SW,217,1.0,2.0,76,0.00,,OVC018,0.02,VWS V12.07,2013-01-13 03:30:00,
2013-01-12 21:33:00,14.0,7.8,29.93,SW,217,0.0,2.0,76,0.00,,OVC018,0.02,VWS V12.07,2013-01-13 03:33:00,
2013-01-12 21:34:00,14.0,7.8,29.93,SW,217,0.0,2.0,76,0.00,,,0.02,VWS V12.07,2013-01-13 03:34:00,
2013-01-12 21:36:00,14.0,8.1,29.93,SW,217,2.0,2.0,77,0.00,,,0.02,VWS V12.07,2013-01-13 03:36:00,
2013-01-12 21:38:00,13.8,7.9,29.93,South,186,1.0,3.0,77,0.00,,,0.02,VWS V12.07,2013-01-13 03:38:00,
2013-01-12 21:39:00,14.0,8.1,29.93,South,186,0.0,3.0,77,0.00,,,0.02,VWS V12.07,2013-01-13 03:39:00,
2013-01-12 21:41:00,13.8,7.9,29.93,South,188,0.0,3.0,77,0.00,,,0.02,VWS V12.07,2013-01-13 03:41:00,
2013-01-12 21:43:00,13.8,7.7,29.93,South,188,1.0,3.0,76,0.00,,,0.02,VWS V12.07,2013-01-13 03:43:00,
2013-01-12 21:44:00,13.8,7.4,29.93,South,188,1.0,3.0,75,0.00,,,0.02,VWS V12.07,2013-01-13 03:44:00,
2013-01-12 21:45:00,13.8,7.4,29.93,South,188,1.0,3.0,75,0.00,,,0.02,VWS V12.07,2013-01-13 03:45:00,
2013-01-12 21:46:00,13.8,7.4,29.92,South,188,0.0,3.0,75,0.00,,,0.02,VWS V12.07,2013-01-13 03:46:00,
2013-01-12 21:48:00,13.6,7.2,29.92,South,188,0.0,1.0,75,0.00,,,0.02,VWS V12.07,2013-01-13 03:48:00,
2013-01-12 21:50:00,13.6,7.2,29.92,South,188,0.0,1.0,75,0.00,,,0.02,VWS V12.07,2013-01-13 03:50:00,
2013-01-12 21:51:00,13.8,7.4,29.92,South,188,0.0,1.0,75,0.00,,,0.02,VWS V12.07,2013-01-13 03:51:00,
2013-01-12 21:53:00,13.8,7.4,29.92,South,188,0.0,1.0,75,0.00,,,0.02,VWS V12.07,2013-01-13 03:53:00,
2013-01-12 21:55:00,13.8,7.4,29.92,South,188,0.0,1.0,75,0.00,,,0.02,VWS V12.07,2013-01-13 03:55:00,
2013-01-12 21:56:00,13.8,7.4,29.92,South,188,0.0,1.0,75,0.00,,,0.02,VWS V12.07,2013-01-13 03:56:00,
2013-01-12 21:58:00,13.8,7.4,29.92,South,188,0.0,1.0,75,0.00,,,0.02,VWS V12.07,2013-01-13 03:58:00,
2013-01-12 22:00:00,13.8,7.4,29.93,South,188,0.0,1.0,75,0.00,,,0.02,VWS V12.07,2013-01-13 04:00:00,
2013-01-12 22:01:00,13.8,7.4,29.93,South,188,1.0,1.0,75,0.00,,,0.02,VWS V12.07,2013-01-13 04:01:00,
2013-01-12 22:02:00,13.8,7.4,29.93,South,188,0.0,2.0,75,0.00,,,0.02,VWS V12.07,2013-01-13 04:02:00,
2013-01-12 22:03:00,13.6,6.9,29.93,SSW,195,0.0,3.0,74,0.00,,,0.02,VWS V12.07,2013-01-13 04:03:00,
2013-01-12 22:06:00,13.6,6.9,29.93,SSW,195,0.0,3.0,74,0.00,,,0.02,VWS V12.07,2013-01-13 04:06:00,
2013-01-12 22:07:00,13.6,6.9,29.93,SSW,195,0.0,3.0,74,0.00,,,0.02,VWS V12.07,2013-01-13 04:07:00,
2013-01-12 22:09:00,13.6,6.9,29.93,SSW,195,1.0,1.0,74,0.00,,,0.02,VWS V12.07,2013-01-13 04:09:00,
2013-01-12 22:11:00,13.6,6.9,29.93,SSW,195,0.0,2.0,74,0.00,,,0.02,VWS V12.07,2013-01-13 04:11:00,
2013-01-12 22:12:00,13.6,6.9,29.93,SSW,195,1.0,2.0,74,0.00,,,0.02,VWS V12.07,2013-01-13 04:12:00,
2013-01-12 22:14:00,13.6,6.9,29.93,SSW,195,0.0,2.0,74,0.00,,,0.02,VWS V12.07,2013-01-13 04:14:00,
2013-01-12 22:16:00,13.6,6.6,29.94,SSW,195,1.0,2.0,73,0.00,,,0.02,VWS V12.07,2013-01-13 04:16:00,
2013-01-12 22:17:00,13.6,6.9,29.94,SSW,198,0.0,2.0,74,0.00,,,0.02,VWS V12.07,2013-01-13 04:17:00,
2013-01-12 22:19:00,13.6,6.6,29.94,SSW,198,0.0,2.0,73,0.00,,,0.02,VWS V12.07,2013-01-13 04:19:00,
2013-01-12 22:21:00,13.5,6.5,29.94,WSW,239,0.0,4.0,73,0.00,,,0.02,VWS V12.07,2013-01-13 04:21:00,
2013-01-12 22:22:00,13.5,6.5,29.94,WSW,239,0.0,4.0,73,0.00,,,0.02,VWS V12.07,2013-01-13 04:22:00,
2013-01-12 22:24:00,13.5,6.5,29.94,WSW,239,0.0,4.0,73,0.00,,,0.02,VWS V12.07,2013-01-13 04:24:00,
2013-01-12 22:26:00,13.5,6.5,29.94,WSW,239,0.0,4.0,73,0.00,,,0.02,VWS V12.07,2013-01-13 04:26:00,
2013-01-12 22:27:00,13.6,6.9,29.94,WSW,239,2.0,4.0,74,0.00,,,0.02,VWS V12.07,2013-01-13 04:27:00,
2013-01-12 22:29:00,13.5,6.5,29.94,WSW,239,1.0,2.0,73,0.00,,,0.02,VWS V12.07,2013-01-13 04:29:00,
2013-01-12 22:31:00,13.5,6.5,29.92,WSW,239,0.0,2.0,73,0.00,,,0.02,VWS V12.07,2013-01-13 04:31:00,
2013-01-12 22:32:00,13.5,6.5,29.92,WSW,239,2.0,2.0,73,0.00,,,0.02,VWS V12.07,2013-01-13 04:32:00,
2013-01-12 22:34:00,13.5,6.5,29.92,WSW,239,0.0,3.0,73,0.00,,,0.02,VWS V12.07,2013-01-13 04:34:00,
2013-01-12 22:36:00,13.5,6.5,29.92,WSW,239,0.0,3.0,73,0.00,,,0.02,VWS V12.07,2013-01-13 04:36:00,
2013-01-12 22:38:00,13.5,6.5,29.92,WSW,239,0.0,3.0,73,0.00,,,0.02,VWS V12.07,2013-01-13 04:38:00,
2013-01-12 22:40:00,13.5,6.8,29.92,WSW,239,0.0,1.0,74,0.00,,,0.02,VWS V12.07,2013-01-13 04:40:00,
2013-01-12 22:41:00,13.5,6.5,29.92,WSW,239,0.0,1.0,73,0.00,,,0.02,VWS V12.07,2013-01-13 04:41:00,
2013-01-12 22:43:00,13.5,6.8,29.92,WSW,239,1.0,2.0,74,0.00,,,0.02,VWS V12.07,2013-01-13 04:43:00,
2013-01-12 22:45:00,13.5,6.5,29.94,WSW,239,0.0,2.0,73,0.00,,,0.02,VWS V12.07,2013-01-13 04:45:00,
2013-01-12 22:46:00,13.5,6.5,29.94,WSW,239,1.0,2.0,73,0.00,,,0.02,VWS V12.07,2013-01-13 04:46:00,
2013-01-12 22:48:00,13.5,6.8,29.94,WSW,239,0.0,2.0,74,0.00,,,0.02,VWS V12.07,2013-01-13 04:48:00,
2013-01-12 22:49:00,13.5,6.8,29.94,WSW,239,0.0,2.0,74,0.00,,OVC020,0.02,VWS V12.07,2013-01-13 04:49:00,
2013-01-12 22:50:00,13.5,6.5,29.94,WSW,239,0.0,2.0,73,0.00,,OVC020,0.02,VWS V12.07,2013-01-13 04:50:00,
2013-01-12 22:51:00,13.5,6.5,29.94,WSW,239,0.0,2.0,73,0.00,,OVC020,0.02,VWS V12.07,2013-01-13 04:51:00,
2013-01-12 22:53:00,13.5,6.8,29.94,WSW,239,0.0,2.0,74,0.00,,OVC020,0.02,VWS V12.07,2013-01-13 04:53:00,
2013-01-12 22:54:00,13.5,6.8,29.94,WSW,239,0.0,2.0,74,0.00,,OVC020,0.02,VWS V12.07,2013-01-13 04:54:00,
2013-01-12 22:55:00,13.5,6.8,29.94,WSW,239,0.0,2.0,74,0.00,,OVC020,0.02,VWS V12.07,2013-01-13 04:55:00,
2013-01-12 22:57:00,13.5,6.8,29.94,WSW,239,1.0,2.0,74,0.00,,OVC020,0.02,VWS V12.07,2013-01-13 04:57:00,
2013-01-12 22:58:00,13.5,6.8,29.94,WSW,239,0.0,2.0,74,0.00,,OVC020,0.02,VWS V12.07,2013-01-13 04:58:00,
2013-01-12 22:59:00,13.5,6.8,29.94,WSW,239,1.0,2.0,74,0.00,,OVC020,0.02,VWS V12.07,2013-01-13 04:59:00,
2013-01-12 23:00:00,13.5,6.8,29.94,WSW,239,0.0,2.0,74,0.00,,OVC020,0.02,VWS V12.07,2013-01-13 05:00:00,
2013-01-12 23:01:00,13.5,6.8,29.94,WSW,239,1.0,2.0,74,0.00,,OVC020,0.02,VWS V12.07,2013-01-13 05:01:00,
2013-01-12 23:02:00,13.5,6.8,29.94,WSW,239,0.0,2.0,74,0.00,,OVC020,0.02,VWS V12.07,2013-01-13 05:02:00,
2013-01-12 23:05:00,13.3,6.6,29.94,WSW,239,0.0,2.0,74,0.00,,OVC020,0.02,VWS V12.07,2013-01-13 05:05:00,
2013-01-12 23:06:00,13.3,6.6,29.94,WSW,239,2.0,2.0,74,0.00,,OVC020,0.02,VWS V12.07,2013-01-13 05:06:00,
2013-01-12 23:07:00,13.3,6.6,29.94,WSW,239,2.0,2.0,74,0.00,,OVC020,0.02,VWS V12.07,2013-01-13 05:07:00,
2013-01-12 23:10:00,13.3,6.6,29.94,WSW,239,0.0,2.0,74,0.00,,OVC020,0.02,VWS V12.07,2013-01-13 05:10:00,
2013-01-12 23:12:00,13.3,6.6,29.94,WSW,239,0.0,2.0,74,0.00,,OVC020,0.02,VWS V12.07,2013-01-13 05:12:00,
2013-01-12 23:16:00,13.3,6.6,29.93,WSW,239,0.0,2.0,74,0.00,,OVC020,0.02,VWS V12.07,2013-01-13 05:16:00,
2013-01-12 23:17:00,13.3,6.6,29.93,WSW,239,0.0,2.0,74,0.00,,OVC020,0.02,VWS V12.07,2013-01-13 05:17:00,
2013-01-12 23:21:00,13.3,6.6,29.93,WSW,239,0.0,1.0,74,0.00,,OVC020,0.02,VWS V12.07,2013-01-13 05:21:00,
2013-01-12 23:22:00,13.3,6.6,29.93,WSW,239,0.0,1.0,74,0.00,,OVC020,0.02,VWS V12.07,2013-01-13 05:22:00,
2013-01-12 23:23:00,13.3,6.9,29.93,WSW,239,1.0,1.0,75,0.00,,OVC020,0.02,VWS V12.07,2013-01-13 05:23:00,
2013-01-12 23:26:00,13.3,6.6,29.93,WSW,239,0.0,1.0,74,0.00,,OVC020,0.02,VWS V12.07,2013-01-13 05:26:00,
2013-01-12 23:27:00,13.3,6.6,29.93,WSW,239,1.0,1.0,74,0.00,,OVC020,0.02,VWS V12.07,2013-01-13 05:27:00,
2013-01-12 23:28:00,13.3,6.6,29.93,WSW,239,0.0,1.0,74,0.00,,OVC020,0.02,VWS V12.07,2013-01-13 05:28:00,
2013-01-12 23:31:00,13.3,6.6,29.94,WSW,239,0.0,3.0,74,0.00,,OVC020,0.02,VWS V12.07,2013-01-13 05:31:00,
2013-01-12 23:33:00,13.3,6.6,29.94,WSW,239,0.0,3.0,74,0.00,,OVC020,0.02,VWS V12.07,2013-01-13 05:33:00,
2013-01-12 23:36:00,13.1,6.4,29.94,WSW,239,1.0,3.0,74,0.00,,OVC020,0.02,VWS V12.07,2013-01-13 05:36:00,
2013-01-12 23:38:00,13.1,6.4,29.94,WSW,239,2.0,3.0,74,0.00,,OVC020,0.02,VWS V12.07,2013-01-13 05:38:00,
2013-01-12 23:42:00,13.1,6.4,29.94,WSW,239,0.0,2.0,74,0.00,,OVC020,0.02,VWS V12.07,2013-01-13 05:42:00,
2013-01-12 23:43:00,13.1,6.4,29.94,WSW,239,1.0,2.0,74,0.00,,OVC020,0.02,VWS V12.07,2013-01-13 05:43:00,
2013-01-12 23:44:00,13.1,6.4,29.94,WSW,239,2.0,2.0,74,0.00,,OVC020,0.02,VWS V12.07,2013-01-13 05:44:00,
2013-01-12 23:47:00,12.9,6.2,29.94,WSW,239,1.0,2.0,74,0.00,,OVC020,0.00,VWS V12.07,2013-01-13 05:47:00,
2013-01-12 23:49:00,12.9,6.2,29.94,WSW,239,0.0,2.0,74,0.00,,OVC020,0.00,VWS V12.07,2013-01-13 05:49:00,
2013-01-12 23:52:00,12.9,6.2,29.94,WSW,239,1.0,2.0,74,0.00,,OVC020,0.00,VWS V12.07,2013-01-13 05:52:00,
2013-01-12 23:54:00,12.9,6.2,29.94,WSW,239,0.0,2.0,74,0.00,,OVC020,0.00,VWS V12.07,2013-01-13 05:54:00,
2013-01-12 23:57:00,12.9,6.2,29.94,WSW,239,0.0,2.0,74,0.00,,OVC020,0.00,VWS V12.07,2013-01-13 05:57:00,
2013-01-12 23:59:00,12.9,6.2,29.94,WSW,239,1.0,2.0,74,0.00,,OVC020,0.00,VWS V12.07,2013-01-13 05:59:00,